<?xml version="1.0" encoding="UTF-8" standalone="no" ?>
<gpx xmlns="http://www.topografix.com/GPX/1/1" xmlns:xsi="http://www.w3.org/2001/XMLSchema-instance" xsi:schemaLocation="http://www.topografix.com/GPX/1/1 http://www.topografix.com/GPX/1/1/gpx.xsd" version="1.1" creator="VisuGPX - https://www.visugpx.com">
  <metadata>
    <name>Le château de Fressac</name>
    <desc><![CDATA[Au départ de La Selve]]></desc>
  </metadata>
  <trk>
    <name><![CDATA[Le château de Fressac_1]]></name>
    <trkseg>
      <trkpt lat="43.96601" lon="3.94138">
        <ele>132</ele>
        <time>2014-02-02T08:18:56Z</time>
      </trkpt>
      <trkpt lat="43.96604" lon="3.94138">
        <ele>134</ele>
        <time>2014-02-02T08:19:25Z</time>
      </trkpt>
      <trkpt lat="43.96614" lon="3.94145">
        <ele>134</ele>
        <time>2014-02-02T08:19:38Z</time>
      </trkpt>
      <trkpt lat="43.96614" lon="3.94142">
        <ele>133</ele>
        <time>2014-02-02T08:20:42Z</time>
      </trkpt>
      <trkpt lat="43.96615" lon="3.94139">
        <ele>132</ele>
        <time>2014-02-02T08:20:51Z</time>
      </trkpt>
      <trkpt lat="43.96617" lon="3.94138">
        <ele>134</ele>
        <time>2014-02-02T08:20:58Z</time>
      </trkpt>
      <trkpt lat="43.9662" lon="3.9414">
        <ele>133</ele>
        <time>2014-02-02T08:21:18Z</time>
      </trkpt>
      <trkpt lat="43.96618" lon="3.9411">
        <ele>134</ele>
        <time>2014-02-02T08:21:59Z</time>
      </trkpt>
      <trkpt lat="43.96608" lon="3.94084">
        <ele>136</ele>
        <time>2014-02-02T08:22:19Z</time>
      </trkpt>
      <trkpt lat="43.96607" lon="3.94073">
        <ele>137</ele>
        <time>2014-02-02T08:22:28Z</time>
      </trkpt>
      <trkpt lat="43.96613" lon="3.9406">
        <ele>138</ele>
        <time>2014-02-02T08:22:37Z</time>
      </trkpt>
      <trkpt lat="43.96635" lon="3.94035">
        <ele>141</ele>
        <time>2014-02-02T08:23:07Z</time>
      </trkpt>
      <trkpt lat="43.96635" lon="3.94029">
        <ele>142</ele>
        <time>2014-02-02T08:23:12Z</time>
      </trkpt>
      <trkpt lat="43.96628" lon="3.9402">
        <ele>143</ele>
        <time>2014-02-02T08:23:22Z</time>
      </trkpt>
      <trkpt lat="43.96592" lon="3.93981">
        <ele>148</ele>
        <time>2014-02-02T08:24:06Z</time>
      </trkpt>
      <trkpt lat="43.96583" lon="3.93977">
        <ele>150</ele>
        <time>2014-02-02T08:24:17Z</time>
      </trkpt>
      <trkpt lat="43.9657" lon="3.93966">
        <ele>150</ele>
        <time>2014-02-02T08:24:32Z</time>
      </trkpt>
      <trkpt lat="43.96533" lon="3.93953">
        <ele>142</ele>
        <time>2014-02-02T08:25:09Z</time>
      </trkpt>
      <trkpt lat="43.96525" lon="3.93947">
        <ele>142</ele>
        <time>2014-02-02T08:25:16Z</time>
      </trkpt>
      <trkpt lat="43.96515" lon="3.93934">
        <ele>144</ele>
        <time>2014-02-02T08:25:27Z</time>
      </trkpt>
      <trkpt lat="43.96511" lon="3.9392">
        <ele>146</ele>
        <time>2014-02-02T08:25:44Z</time>
      </trkpt>
      <trkpt lat="43.96496" lon="3.93891">
        <ele>128</ele>
        <time>2014-02-02T08:26:16Z</time>
      </trkpt>
      <trkpt lat="43.96496" lon="3.93879">
        <ele>135</ele>
        <time>2014-02-02T08:26:31Z</time>
      </trkpt>
      <trkpt lat="43.96494" lon="3.93862">
        <ele>140</ele>
        <time>2014-02-02T08:26:47Z</time>
      </trkpt>
      <trkpt lat="43.96482" lon="3.93846">
        <ele>147</ele>
        <time>2014-02-02T08:27:08Z</time>
      </trkpt>
      <trkpt lat="43.96477" lon="3.93831">
        <ele>148</ele>
        <time>2014-02-02T08:27:21Z</time>
      </trkpt>
      <trkpt lat="43.9647" lon="3.93824">
        <ele>151</ele>
        <time>2014-02-02T08:28:23Z</time>
      </trkpt>
      <trkpt lat="43.96468" lon="3.93816">
        <ele>152</ele>
        <time>2014-02-02T08:28:36Z</time>
      </trkpt>
      <trkpt lat="43.9647" lon="3.93811">
        <ele>153</ele>
        <time>2014-02-02T08:28:43Z</time>
      </trkpt>
      <trkpt lat="43.96474" lon="3.93808">
        <ele>153</ele>
        <time>2014-02-02T08:28:48Z</time>
      </trkpt>
      <trkpt lat="43.96487" lon="3.93808">
        <ele>153</ele>
        <time>2014-02-02T08:29:05Z</time>
      </trkpt>
      <trkpt lat="43.9649" lon="3.93807">
        <ele>142</ele>
        <time>2014-02-02T08:29:23Z</time>
      </trkpt>
      <trkpt lat="43.96495" lon="3.93793">
        <ele>146</ele>
        <time>2014-02-02T08:29:57Z</time>
      </trkpt>
      <trkpt lat="43.9649" lon="3.93784">
        <ele>149</ele>
        <time>2014-02-02T08:30:05Z</time>
      </trkpt>
      <trkpt lat="43.96481" lon="3.93776">
        <ele>151</ele>
        <time>2014-02-02T08:30:16Z</time>
      </trkpt>
      <trkpt lat="43.96468" lon="3.93774">
        <ele>152</ele>
        <time>2014-02-02T08:30:28Z</time>
      </trkpt>
      <trkpt lat="43.96457" lon="3.93774">
        <ele>152</ele>
        <time>2014-02-02T08:30:39Z</time>
      </trkpt>
      <trkpt lat="43.96439" lon="3.93765">
        <ele>154</ele>
        <time>2014-02-02T08:30:54Z</time>
      </trkpt>
      <trkpt lat="43.96425" lon="3.93751">
        <ele>155</ele>
        <time>2014-02-02T08:31:09Z</time>
      </trkpt>
      <trkpt lat="43.96399" lon="3.93719">
        <ele>158</ele>
        <time>2014-02-02T08:31:38Z</time>
      </trkpt>
      <trkpt lat="43.96377" lon="3.93703">
        <ele>160</ele>
        <time>2014-02-02T08:32:00Z</time>
      </trkpt>
      <trkpt lat="43.96365" lon="3.93689">
        <ele>159</ele>
        <time>2014-02-02T08:32:11Z</time>
      </trkpt>
      <trkpt lat="43.96362" lon="3.93687">
        <ele>159</ele>
        <time>2014-02-02T08:32:15Z</time>
      </trkpt>
      <trkpt lat="43.96347" lon="3.93682">
        <ele>160</ele>
        <time>2014-02-02T08:32:28Z</time>
      </trkpt>
      <trkpt lat="43.96342" lon="3.93678">
        <ele>146</ele>
        <time>2014-02-02T08:32:42Z</time>
      </trkpt>
      <trkpt lat="43.96342" lon="3.93672">
        <ele>145</ele>
        <time>2014-02-02T08:33:03Z</time>
      </trkpt>
      <trkpt lat="43.96334" lon="3.93661">
        <ele>148</ele>
        <time>2014-02-02T08:33:41Z</time>
      </trkpt>
      <trkpt lat="43.96332" lon="3.93652">
        <ele>150</ele>
        <time>2014-02-02T08:33:49Z</time>
      </trkpt>
      <trkpt lat="43.96331" lon="3.9363">
        <ele>152</ele>
        <time>2014-02-02T08:34:07Z</time>
      </trkpt>
      <trkpt lat="43.96327" lon="3.93613">
        <ele>154</ele>
        <time>2014-02-02T08:34:23Z</time>
      </trkpt>
      <trkpt lat="43.96323" lon="3.9356">
        <ele>160</ele>
        <time>2014-02-02T08:35:10Z</time>
      </trkpt>
      <trkpt lat="43.9632" lon="3.93545">
        <ele>162</ele>
        <time>2014-02-02T08:35:23Z</time>
      </trkpt>
      <trkpt lat="43.96312" lon="3.93523">
        <ele>164</ele>
        <time>2014-02-02T08:35:42Z</time>
      </trkpt>
      <trkpt lat="43.96309" lon="3.93506">
        <ele>164</ele>
        <time>2014-02-02T08:35:55Z</time>
      </trkpt>
      <trkpt lat="43.9629" lon="3.93461">
        <ele>168</ele>
        <time>2014-02-02T08:36:27Z</time>
      </trkpt>
      <trkpt lat="43.96276" lon="3.93423">
        <ele>169</ele>
        <time>2014-02-02T08:37:00Z</time>
      </trkpt>
      <trkpt lat="43.96262" lon="3.93401">
        <ele>171</ele>
        <time>2014-02-02T08:37:21Z</time>
      </trkpt>
      <trkpt lat="43.96258" lon="3.93393">
        <ele>172</ele>
        <time>2014-02-02T08:37:27Z</time>
      </trkpt>
      <trkpt lat="43.96258" lon="3.93388">
        <ele>173</ele>
        <time>2014-02-02T08:37:31Z</time>
      </trkpt>
      <trkpt lat="43.9626" lon="3.93383">
        <ele>173</ele>
        <time>2014-02-02T08:37:36Z</time>
      </trkpt>
      <trkpt lat="43.96265" lon="3.9338">
        <ele>173</ele>
        <time>2014-02-02T08:37:43Z</time>
      </trkpt>
      <trkpt lat="43.96268" lon="3.93382">
        <ele>174</ele>
        <time>2014-02-02T08:37:48Z</time>
      </trkpt>
      <trkpt lat="43.96288" lon="3.93398">
        <ele>177</ele>
        <time>2014-02-02T08:38:14Z</time>
      </trkpt>
      <trkpt lat="43.96304" lon="3.9342">
        <ele>180</ele>
        <time>2014-02-02T08:38:39Z</time>
      </trkpt>
      <trkpt lat="43.96313" lon="3.93424">
        <ele>181</ele>
        <time>2014-02-02T08:38:49Z</time>
      </trkpt>
      <trkpt lat="43.96334" lon="3.93425">
        <ele>182</ele>
        <time>2014-02-02T08:39:10Z</time>
      </trkpt>
      <trkpt lat="43.96357" lon="3.93429">
        <ele>183</ele>
        <time>2014-02-02T08:39:33Z</time>
      </trkpt>
      <trkpt lat="43.96364" lon="3.93425">
        <ele>184</ele>
        <time>2014-02-02T08:39:40Z</time>
      </trkpt>
      <trkpt lat="43.96369" lon="3.93417">
        <ele>184</ele>
        <time>2014-02-02T08:39:47Z</time>
      </trkpt>
      <trkpt lat="43.96375" lon="3.9339">
        <ele>185</ele>
        <time>2014-02-02T08:40:05Z</time>
      </trkpt>
      <trkpt lat="43.96382" lon="3.93365">
        <ele>186</ele>
        <time>2014-02-02T08:40:21Z</time>
      </trkpt>
      <trkpt lat="43.96397" lon="3.9333">
        <ele>188</ele>
        <time>2014-02-02T08:40:47Z</time>
      </trkpt>
      <trkpt lat="43.96404" lon="3.93301">
        <ele>189</ele>
        <time>2014-02-02T08:41:05Z</time>
      </trkpt>
      <trkpt lat="43.96407" lon="3.93274">
        <ele>190</ele>
        <time>2014-02-02T08:41:23Z</time>
      </trkpt>
      <trkpt lat="43.96407" lon="3.93256">
        <ele>192</ele>
        <time>2014-02-02T08:41:33Z</time>
      </trkpt>
      <trkpt lat="43.96405" lon="3.93231">
        <ele>192</ele>
        <time>2014-02-02T08:41:49Z</time>
      </trkpt>
      <trkpt lat="43.96401" lon="3.93206">
        <ele>193</ele>
        <time>2014-02-02T08:42:05Z</time>
      </trkpt>
      <trkpt lat="43.96392" lon="3.93178">
        <ele>193</ele>
        <time>2014-02-02T08:42:23Z</time>
      </trkpt>
      <trkpt lat="43.96387" lon="3.93111">
        <ele>193</ele>
        <time>2014-02-02T08:43:11Z</time>
      </trkpt>
      <trkpt lat="43.96394" lon="3.93055">
        <ele>192</ele>
        <time>2014-02-02T08:43:46Z</time>
      </trkpt>
      <trkpt lat="43.96401" lon="3.93041">
        <ele>192</ele>
        <time>2014-02-02T08:43:59Z</time>
      </trkpt>
      <trkpt lat="43.96416" lon="3.92999">
        <ele>193</ele>
        <time>2014-02-02T08:44:29Z</time>
      </trkpt>
      <trkpt lat="43.96428" lon="3.92979">
        <ele>190</ele>
        <time>2014-02-02T08:44:46Z</time>
      </trkpt>
      <trkpt lat="43.96436" lon="3.92972">
        <ele>190</ele>
        <time>2014-02-02T08:44:55Z</time>
      </trkpt>
      <trkpt lat="43.96442" lon="3.92971">
        <ele>190</ele>
        <time>2014-02-02T08:45:01Z</time>
      </trkpt>
      <trkpt lat="43.96446" lon="3.92971">
        <ele>191</ele>
        <time>2014-02-02T08:45:06Z</time>
      </trkpt>
      <trkpt lat="43.96484" lon="3.92996">
        <ele>192</ele>
        <time>2014-02-02T08:45:53Z</time>
      </trkpt>
      <trkpt lat="43.96512" lon="3.93009">
        <ele>195</ele>
        <time>2014-02-02T08:46:22Z</time>
      </trkpt>
      <trkpt lat="43.96533" lon="3.93011">
        <ele>197</ele>
        <time>2014-02-02T08:46:42Z</time>
      </trkpt>
      <trkpt lat="43.96545" lon="3.93006">
        <ele>193</ele>
        <time>2014-02-02T08:46:53Z</time>
      </trkpt>
      <trkpt lat="43.96557" lon="3.93005">
        <ele>188</ele>
        <time>2014-02-02T08:47:04Z</time>
      </trkpt>
      <trkpt lat="43.96568" lon="3.93007">
        <ele>188</ele>
        <time>2014-02-02T08:47:14Z</time>
      </trkpt>
      <trkpt lat="43.96578" lon="3.93007">
        <ele>190</ele>
        <time>2014-02-02T08:47:25Z</time>
      </trkpt>
      <trkpt lat="43.96588" lon="3.93009">
        <ele>191</ele>
        <time>2014-02-02T08:47:33Z</time>
      </trkpt>
      <trkpt lat="43.96616" lon="3.9302">
        <ele>195</ele>
        <time>2014-02-02T08:48:00Z</time>
      </trkpt>
      <trkpt lat="43.96627" lon="3.93029">
        <ele>192</ele>
        <time>2014-02-02T08:48:10Z</time>
      </trkpt>
      <trkpt lat="43.96629" lon="3.93036">
        <ele>193</ele>
        <time>2014-02-02T08:48:16Z</time>
      </trkpt>
      <trkpt lat="43.96629" lon="3.93052">
        <ele>193</ele>
        <time>2014-02-02T08:48:27Z</time>
      </trkpt>
      <trkpt lat="43.9663" lon="3.93059">
        <ele>193</ele>
        <time>2014-02-02T08:48:33Z</time>
      </trkpt>
      <trkpt lat="43.96642" lon="3.93083">
        <ele>196</ele>
        <time>2014-02-02T08:49:23Z</time>
      </trkpt>
      <trkpt lat="43.96644" lon="3.93085">
        <ele>196</ele>
        <time>2014-02-02T08:49:30Z</time>
      </trkpt>
      <trkpt lat="43.96652" lon="3.93087">
        <ele>197</ele>
        <time>2014-02-02T08:49:40Z</time>
      </trkpt>
      <trkpt lat="43.9666" lon="3.93085">
        <ele>198</ele>
        <time>2014-02-02T08:49:48Z</time>
      </trkpt>
      <trkpt lat="43.96683" lon="3.93062">
        <ele>198</ele>
        <time>2014-02-02T08:50:13Z</time>
      </trkpt>
      <trkpt lat="43.96688" lon="3.9306">
        <ele>198</ele>
        <time>2014-02-02T08:50:18Z</time>
      </trkpt>
      <trkpt lat="43.96703" lon="3.93057">
        <ele>200</ele>
        <time>2014-02-02T08:50:33Z</time>
      </trkpt>
      <trkpt lat="43.96729" lon="3.93027">
        <ele>202</ele>
        <time>2014-02-02T08:51:04Z</time>
      </trkpt>
      <trkpt lat="43.96753" lon="3.93007">
        <ele>204</ele>
        <time>2014-02-02T08:51:30Z</time>
      </trkpt>
      <trkpt lat="43.96765" lon="3.93003">
        <ele>201</ele>
        <time>2014-02-02T08:51:41Z</time>
      </trkpt>
      <trkpt lat="43.96772" lon="3.93002">
        <ele>200</ele>
        <time>2014-02-02T08:51:48Z</time>
      </trkpt>
      <trkpt lat="43.96784" lon="3.93005">
        <ele>200</ele>
        <time>2014-02-02T08:51:59Z</time>
      </trkpt>
      <trkpt lat="43.96808" lon="3.9302">
        <ele>203</ele>
        <time>2014-02-02T08:52:25Z</time>
      </trkpt>
      <trkpt lat="43.96818" lon="3.93029">
        <ele>203</ele>
        <time>2014-02-02T08:52:35Z</time>
      </trkpt>
      <trkpt lat="43.96831" lon="3.93042">
        <ele>204</ele>
        <time>2014-02-02T08:52:49Z</time>
      </trkpt>
      <trkpt lat="43.96847" lon="3.93053">
        <ele>205</ele>
        <time>2014-02-02T08:53:03Z</time>
      </trkpt>
      <trkpt lat="43.96868" lon="3.93071">
        <ele>206</ele>
        <time>2014-02-02T08:53:26Z</time>
      </trkpt>
      <trkpt lat="43.9688" lon="3.93076">
        <ele>206</ele>
        <time>2014-02-02T08:53:38Z</time>
      </trkpt>
      <trkpt lat="43.96896" lon="3.93081">
        <ele>206</ele>
        <time>2014-02-02T08:53:51Z</time>
      </trkpt>
      <trkpt lat="43.96909" lon="3.93086">
        <ele>206</ele>
        <time>2014-02-02T08:54:02Z</time>
      </trkpt>
      <trkpt lat="43.96929" lon="3.93091">
        <ele>205</ele>
        <time>2014-02-02T08:54:18Z</time>
      </trkpt>
      <trkpt lat="43.96948" lon="3.93103">
        <ele>206</ele>
        <time>2014-02-02T08:54:37Z</time>
      </trkpt>
      <trkpt lat="43.96977" lon="3.93102">
        <ele>205</ele>
        <time>2014-02-02T08:55:00Z</time>
      </trkpt>
      <trkpt lat="43.96992" lon="3.93106">
        <ele>201</ele>
        <time>2014-02-02T08:55:14Z</time>
      </trkpt>
      <trkpt lat="43.97001" lon="3.93106">
        <ele>200</ele>
        <time>2014-02-02T08:55:20Z</time>
      </trkpt>
      <trkpt lat="43.97006" lon="3.93102">
        <ele>200</ele>
        <time>2014-02-02T08:55:25Z</time>
      </trkpt>
      <trkpt lat="43.97019" lon="3.93091">
        <ele>201</ele>
        <time>2014-02-02T08:55:38Z</time>
      </trkpt>
      <trkpt lat="43.97036" lon="3.93082">
        <ele>203</ele>
        <time>2014-02-02T08:55:54Z</time>
      </trkpt>
      <trkpt lat="43.97049" lon="3.93069">
        <ele>203</ele>
        <time>2014-02-02T08:56:09Z</time>
      </trkpt>
      <trkpt lat="43.97057" lon="3.93064">
        <ele>203</ele>
        <time>2014-02-02T08:56:19Z</time>
      </trkpt>
      <trkpt lat="43.97061" lon="3.93064">
        <ele>203</ele>
        <time>2014-02-02T08:56:23Z</time>
      </trkpt>
      <trkpt lat="43.97081" lon="3.93074">
        <ele>203</ele>
        <time>2014-02-02T08:56:41Z</time>
      </trkpt>
      <trkpt lat="43.97096" lon="3.93085">
        <ele>203</ele>
        <time>2014-02-02T08:56:58Z</time>
      </trkpt>
      <trkpt lat="43.97122" lon="3.93092">
        <ele>198</ele>
        <time>2014-02-02T08:57:19Z</time>
      </trkpt>
      <trkpt lat="43.97156" lon="3.93107">
        <ele>196</ele>
        <time>2014-02-02T08:57:50Z</time>
      </trkpt>
      <trkpt lat="43.97165" lon="3.93113">
        <ele>196</ele>
        <time>2014-02-02T08:57:59Z</time>
      </trkpt>
      <trkpt lat="43.97181" lon="3.93134">
        <ele>195</ele>
        <time>2014-02-02T08:58:18Z</time>
      </trkpt>
      <trkpt lat="43.97186" lon="3.93139">
        <ele>195</ele>
        <time>2014-02-02T08:58:24Z</time>
      </trkpt>
      <trkpt lat="43.97191" lon="3.93139">
        <ele>195</ele>
        <time>2014-02-02T08:58:29Z</time>
      </trkpt>
      <trkpt lat="43.97215" lon="3.93126">
        <ele>197</ele>
        <time>2014-02-02T08:58:49Z</time>
      </trkpt>
      <trkpt lat="43.97221" lon="3.93125">
        <ele>198</ele>
        <time>2014-02-02T08:58:54Z</time>
      </trkpt>
      <trkpt lat="43.97298" lon="3.93171">
        <ele>198</ele>
        <time>2014-02-02T09:00:01Z</time>
      </trkpt>
      <trkpt lat="43.97312" lon="3.93175">
        <ele>198</ele>
        <time>2014-02-02T09:00:13Z</time>
      </trkpt>
      <trkpt lat="43.97327" lon="3.93169">
        <ele>199</ele>
        <time>2014-02-02T09:00:26Z</time>
      </trkpt>
      <trkpt lat="43.97347" lon="3.93167">
        <ele>199</ele>
        <time>2014-02-02T09:00:43Z</time>
      </trkpt>
      <trkpt lat="43.97353" lon="3.93164">
        <ele>199</ele>
        <time>2014-02-02T09:00:49Z</time>
      </trkpt>
      <trkpt lat="43.97359" lon="3.93158">
        <ele>198</ele>
        <time>2014-02-02T09:00:58Z</time>
      </trkpt>
      <trkpt lat="43.97369" lon="3.93142">
        <ele>198</ele>
        <time>2014-02-02T09:01:14Z</time>
      </trkpt>
      <trkpt lat="43.97376" lon="3.93138">
        <ele>198</ele>
        <time>2014-02-02T09:01:20Z</time>
      </trkpt>
      <trkpt lat="43.97383" lon="3.93137">
        <ele>197</ele>
        <time>2014-02-02T09:01:26Z</time>
      </trkpt>
      <trkpt lat="43.97387" lon="3.93134">
        <ele>196</ele>
        <time>2014-02-02T09:01:30Z</time>
      </trkpt>
      <trkpt lat="43.97396" lon="3.9312">
        <ele>195</ele>
        <time>2014-02-02T09:01:43Z</time>
      </trkpt>
      <trkpt lat="43.97429" lon="3.9308">
        <ele>193</ele>
        <time>2014-02-02T09:02:25Z</time>
      </trkpt>
      <trkpt lat="43.97432" lon="3.93072">
        <ele>192</ele>
        <time>2014-02-02T09:02:31Z</time>
      </trkpt>
      <trkpt lat="43.9744" lon="3.93039">
        <ele>191</ele>
        <time>2014-02-02T09:02:55Z</time>
      </trkpt>
      <trkpt lat="43.97448" lon="3.93023">
        <ele>191</ele>
        <time>2014-02-02T09:03:07Z</time>
      </trkpt>
      <trkpt lat="43.97465" lon="3.93002">
        <ele>189</ele>
        <time>2014-02-02T09:03:24Z</time>
      </trkpt>
      <trkpt lat="43.97474" lon="3.92988">
        <ele>188</ele>
        <time>2014-02-02T09:03:35Z</time>
      </trkpt>
      <trkpt lat="43.97486" lon="3.92983">
        <ele>188</ele>
        <time>2014-02-02T09:03:46Z</time>
      </trkpt>
      <trkpt lat="43.9749" lon="3.92979">
        <ele>187</ele>
        <time>2014-02-02T09:03:51Z</time>
      </trkpt>
      <trkpt lat="43.97495" lon="3.92971">
        <ele>187</ele>
        <time>2014-02-02T09:03:58Z</time>
      </trkpt>
      <trkpt lat="43.97499" lon="3.92959">
        <ele>186</ele>
        <time>2014-02-02T09:04:07Z</time>
      </trkpt>
      <trkpt lat="43.9751" lon="3.92942">
        <ele>187</ele>
        <time>2014-02-02T09:04:24Z</time>
      </trkpt>
      <trkpt lat="43.97514" lon="3.92939">
        <ele>187</ele>
        <time>2014-02-02T09:04:29Z</time>
      </trkpt>
      <trkpt lat="43.97523" lon="3.92936">
        <ele>187</ele>
        <time>2014-02-02T09:04:38Z</time>
      </trkpt>
      <trkpt lat="43.97528" lon="3.92931">
        <ele>188</ele>
        <time>2014-02-02T09:04:50Z</time>
      </trkpt>
      <trkpt lat="43.97531" lon="3.92915">
        <ele>187</ele>
        <time>2014-02-02T09:05:37Z</time>
      </trkpt>
      <trkpt lat="43.97544" lon="3.92898">
        <ele>186</ele>
        <time>2014-02-02T09:06:03Z</time>
      </trkpt>
      <trkpt lat="43.97557" lon="3.92892">
        <ele>187</ele>
        <time>2014-02-02T09:06:24Z</time>
      </trkpt>
      <trkpt lat="43.97573" lon="3.92891">
        <ele>186</ele>
        <time>2014-02-02T09:06:38Z</time>
      </trkpt>
      <trkpt lat="43.97587" lon="3.92893">
        <ele>184</ele>
        <time>2014-02-02T09:06:51Z</time>
      </trkpt>
      <trkpt lat="43.97594" lon="3.92891">
        <ele>185</ele>
        <time>2014-02-02T09:06:57Z</time>
      </trkpt>
      <trkpt lat="43.97614" lon="3.92875">
        <ele>187</ele>
        <time>2014-02-02T09:07:19Z</time>
      </trkpt>
      <trkpt lat="43.97626" lon="3.92856">
        <ele>185</ele>
        <time>2014-02-02T09:08:16Z</time>
      </trkpt>
      <trkpt lat="43.97647" lon="3.92818">
        <ele>185</ele>
        <time>2014-02-02T09:08:45Z</time>
      </trkpt>
      <trkpt lat="43.97667" lon="3.92777">
        <ele>185</ele>
        <time>2014-02-02T09:09:15Z</time>
      </trkpt>
      <trkpt lat="43.97694" lon="3.92729">
        <ele>184</ele>
        <time>2014-02-02T09:09:51Z</time>
      </trkpt>
      <trkpt lat="43.97759" lon="3.92599">
        <ele>180</ele>
        <time>2014-02-02T09:11:24Z</time>
      </trkpt>
      <trkpt lat="43.97761" lon="3.92591">
        <ele>182</ele>
        <time>2014-02-02T09:11:41Z</time>
      </trkpt>
      <trkpt lat="43.97761" lon="3.92587">
        <ele>182</ele>
        <time>2014-02-02T09:11:45Z</time>
      </trkpt>
      <trkpt lat="43.97756" lon="3.92579">
        <ele>182</ele>
        <time>2014-02-02T09:11:52Z</time>
      </trkpt>
      <trkpt lat="43.97739" lon="3.92561">
        <ele>183</ele>
        <time>2014-02-02T09:12:09Z</time>
      </trkpt>
      <trkpt lat="43.97702" lon="3.92531">
        <ele>182</ele>
        <time>2014-02-02T09:12:44Z</time>
      </trkpt>
      <trkpt lat="43.9768" lon="3.92516">
        <ele>182</ele>
        <time>2014-02-02T09:13:04Z</time>
      </trkpt>
      <trkpt lat="43.97647" lon="3.92499">
        <ele>181</ele>
        <time>2014-02-02T09:13:30Z</time>
      </trkpt>
      <trkpt lat="43.97643" lon="3.92488">
        <ele>181</ele>
        <time>2014-02-02T09:13:38Z</time>
      </trkpt>
      <trkpt lat="43.9764" lon="3.92485">
        <ele>181</ele>
        <time>2014-02-02T09:13:42Z</time>
      </trkpt>
      <trkpt lat="43.97608" lon="3.92473">
        <ele>181</ele>
        <time>2014-02-02T09:14:09Z</time>
      </trkpt>
      <trkpt lat="43.97605" lon="3.92469">
        <ele>181</ele>
        <time>2014-02-02T09:14:12Z</time>
      </trkpt>
      <trkpt lat="43.97597" lon="3.92454">
        <ele>181</ele>
        <time>2014-02-02T09:14:24Z</time>
      </trkpt>
      <trkpt lat="43.97586" lon="3.92443">
        <ele>181</ele>
        <time>2014-02-02T09:14:36Z</time>
      </trkpt>
      <trkpt lat="43.97562" lon="3.92432">
        <ele>182</ele>
        <time>2014-02-02T09:14:59Z</time>
      </trkpt>
      <trkpt lat="43.97543" lon="3.92427">
        <ele>183</ele>
        <time>2014-02-02T09:15:15Z</time>
      </trkpt>
      <trkpt lat="43.97534" lon="3.92428">
        <ele>183</ele>
        <time>2014-02-02T09:15:23Z</time>
      </trkpt>
      <trkpt lat="43.97512" lon="3.92437">
        <ele>184</ele>
        <time>2014-02-02T09:15:41Z</time>
      </trkpt>
      <trkpt lat="43.97504" lon="3.92437">
        <ele>184</ele>
        <time>2014-02-02T09:15:47Z</time>
      </trkpt>
      <trkpt lat="43.97498" lon="3.92434">
        <ele>185</ele>
        <time>2014-02-02T09:15:52Z</time>
      </trkpt>
      <trkpt lat="43.97493" lon="3.92429">
        <ele>185</ele>
        <time>2014-02-02T09:15:57Z</time>
      </trkpt>
      <trkpt lat="43.97491" lon="3.92424">
        <ele>185</ele>
        <time>2014-02-02T09:16:02Z</time>
      </trkpt>
      <trkpt lat="43.97492" lon="3.92417">
        <ele>185</ele>
        <time>2014-02-02T09:16:06Z</time>
      </trkpt>
      <trkpt lat="43.97508" lon="3.92389">
        <ele>187</ele>
        <time>2014-02-02T09:16:29Z</time>
      </trkpt>
      <trkpt lat="43.97524" lon="3.92358">
        <ele>188</ele>
        <time>2014-02-02T09:16:52Z</time>
      </trkpt>
      <trkpt lat="43.97531" lon="3.92351">
        <ele>189</ele>
        <time>2014-02-02T09:16:59Z</time>
      </trkpt>
      <trkpt lat="43.9754" lon="3.92347">
        <ele>189</ele>
        <time>2014-02-02T09:17:07Z</time>
      </trkpt>
      <trkpt lat="43.9758" lon="3.9234">
        <ele>191</ele>
        <time>2014-02-02T09:17:41Z</time>
      </trkpt>
      <trkpt lat="43.97599" lon="3.92335">
        <ele>192</ele>
        <time>2014-02-02T09:17:57Z</time>
      </trkpt>
      <trkpt lat="43.97647" lon="3.92316">
        <ele>195</ele>
        <time>2014-02-02T09:18:40Z</time>
      </trkpt>
      <trkpt lat="43.97677" lon="3.923">
        <ele>196</ele>
        <time>2014-02-02T09:19:09Z</time>
      </trkpt>
      <trkpt lat="43.97704" lon="3.92278">
        <ele>198</ele>
        <time>2014-02-02T09:19:33Z</time>
      </trkpt>
      <trkpt lat="43.97744" lon="3.92238">
        <ele>201</ele>
        <time>2014-02-02T09:20:12Z</time>
      </trkpt>
      <trkpt lat="43.97778" lon="3.92196">
        <ele>202</ele>
        <time>2014-02-02T09:20:49Z</time>
      </trkpt>
      <trkpt lat="43.97793" lon="3.92186">
        <ele>202</ele>
        <time>2014-02-02T09:21:02Z</time>
      </trkpt>
      <trkpt lat="43.97814" lon="3.92174">
        <ele>202</ele>
        <time>2014-02-02T09:21:19Z</time>
      </trkpt>
      <trkpt lat="43.9783" lon="3.92159">
        <ele>202</ele>
        <time>2014-02-02T09:21:34Z</time>
      </trkpt>
      <trkpt lat="43.97858" lon="3.92123">
        <ele>201</ele>
        <time>2014-02-02T09:22:04Z</time>
      </trkpt>
      <trkpt lat="43.97877" lon="3.92094">
        <ele>200</ele>
        <time>2014-02-02T09:22:27Z</time>
      </trkpt>
      <trkpt lat="43.97883" lon="3.92081">
        <ele>200</ele>
        <time>2014-02-02T09:22:36Z</time>
      </trkpt>
      <trkpt lat="43.97893" lon="3.9205">
        <ele>199</ele>
        <time>2014-02-02T09:22:56Z</time>
      </trkpt>
      <trkpt lat="43.97898" lon="3.92043">
        <ele>199</ele>
        <time>2014-02-02T09:23:02Z</time>
      </trkpt>
      <trkpt lat="43.97905" lon="3.92036">
        <ele>200</ele>
        <time>2014-02-02T09:23:08Z</time>
      </trkpt>
      <trkpt lat="43.97927" lon="3.92021">
        <ele>200</ele>
        <time>2014-02-02T09:23:27Z</time>
      </trkpt>
      <trkpt lat="43.97942" lon="3.92014">
        <ele>200</ele>
        <time>2014-02-02T09:23:39Z</time>
      </trkpt>
      <trkpt lat="43.97954" lon="3.9201">
        <ele>200</ele>
        <time>2014-02-02T09:23:49Z</time>
      </trkpt>
      <trkpt lat="43.97971" lon="3.92009">
        <ele>201</ele>
        <time>2014-02-02T09:24:04Z</time>
      </trkpt>
      <trkpt lat="43.97999" lon="3.92001">
        <ele>202</ele>
        <time>2014-02-02T09:24:28Z</time>
      </trkpt>
      <trkpt lat="43.98014" lon="3.91994">
        <ele>202</ele>
        <time>2014-02-02T09:24:41Z</time>
      </trkpt>
      <trkpt lat="43.9803" lon="3.91983">
        <ele>203</ele>
        <time>2014-02-02T09:24:54Z</time>
      </trkpt>
      <trkpt lat="43.98047" lon="3.91967">
        <ele>203</ele>
        <time>2014-02-02T09:25:11Z</time>
      </trkpt>
      <trkpt lat="43.9806" lon="3.91959">
        <ele>205</ele>
        <time>2014-02-02T09:25:26Z</time>
      </trkpt>
      <trkpt lat="43.98062" lon="3.91956">
        <ele>201</ele>
        <time>2014-02-02T09:28:20Z</time>
      </trkpt>
      <trkpt lat="43.98068" lon="3.91956">
        <ele>201</ele>
        <time>2014-02-02T09:28:26Z</time>
      </trkpt>
      <trkpt lat="43.98073" lon="3.91955">
        <ele>201</ele>
        <time>2014-02-02T09:28:31Z</time>
      </trkpt>
      <trkpt lat="43.98082" lon="3.91952">
        <ele>200</ele>
        <time>2014-02-02T09:28:42Z</time>
      </trkpt>
      <trkpt lat="43.98084" lon="3.91948">
        <ele>195</ele>
        <time>2014-02-02T09:29:04Z</time>
      </trkpt>
      <trkpt lat="43.98098" lon="3.91945">
        <ele>193</ele>
        <time>2014-02-02T09:29:54Z</time>
      </trkpt>
      <trkpt lat="43.9811" lon="3.9194">
        <ele>194</ele>
        <time>2014-02-02T09:30:06Z</time>
      </trkpt>
      <trkpt lat="43.9816" lon="3.91907">
        <ele>198</ele>
        <time>2014-02-02T09:30:50Z</time>
      </trkpt>
      <trkpt lat="43.98173" lon="3.91892">
        <ele>199</ele>
        <time>2014-02-02T09:31:04Z</time>
      </trkpt>
      <trkpt lat="43.98185" lon="3.91877">
        <ele>200</ele>
        <time>2014-02-02T09:31:16Z</time>
      </trkpt>
      <trkpt lat="43.98191" lon="3.91864">
        <ele>199</ele>
        <time>2014-02-02T09:31:24Z</time>
      </trkpt>
      <trkpt lat="43.98194" lon="3.91853">
        <ele>200</ele>
        <time>2014-02-02T09:31:30Z</time>
      </trkpt>
      <trkpt lat="43.98194" lon="3.91842">
        <ele>200</ele>
        <time>2014-02-02T09:31:36Z</time>
      </trkpt>
      <trkpt lat="43.98191" lon="3.9183">
        <ele>199</ele>
        <time>2014-02-02T09:31:43Z</time>
      </trkpt>
      <trkpt lat="43.98182" lon="3.91813">
        <ele>201</ele>
        <time>2014-02-02T09:31:55Z</time>
      </trkpt>
      <trkpt lat="43.98155" lon="3.91776">
        <ele>202</ele>
        <time>2014-02-02T09:32:26Z</time>
      </trkpt>
      <trkpt lat="43.98143" lon="3.91755">
        <ele>203</ele>
        <time>2014-02-02T09:32:42Z</time>
      </trkpt>
      <trkpt lat="43.9813" lon="3.91727">
        <ele>204</ele>
        <time>2014-02-02T09:33:00Z</time>
      </trkpt>
      <trkpt lat="43.981" lon="3.91649">
        <ele>204</ele>
        <time>2014-02-02T09:33:49Z</time>
      </trkpt>
      <trkpt lat="43.98098" lon="3.91634">
        <ele>203</ele>
        <time>2014-02-02T09:33:58Z</time>
      </trkpt>
      <trkpt lat="43.98104" lon="3.91595">
        <ele>203</ele>
        <time>2014-02-02T09:34:22Z</time>
      </trkpt>
      <trkpt lat="43.98102" lon="3.91547">
        <ele>204</ele>
        <time>2014-02-02T09:34:49Z</time>
      </trkpt>
      <trkpt lat="43.98105" lon="3.91522">
        <ele>204</ele>
        <time>2014-02-02T09:35:04Z</time>
      </trkpt>
      <trkpt lat="43.9811" lon="3.91508">
        <ele>204</ele>
        <time>2014-02-02T09:35:13Z</time>
      </trkpt>
      <trkpt lat="43.98147" lon="3.91432">
        <ele>207</ele>
        <time>2014-02-02T09:36:07Z</time>
      </trkpt>
      <trkpt lat="43.98164" lon="3.91409">
        <ele>208</ele>
        <time>2014-02-02T09:36:26Z</time>
      </trkpt>
      <trkpt lat="43.98188" lon="3.91371">
        <ele>207</ele>
        <time>2014-02-02T09:36:55Z</time>
      </trkpt>
      <trkpt lat="43.98239" lon="3.91307">
        <ele>206</ele>
        <time>2014-02-02T09:37:48Z</time>
      </trkpt>
      <trkpt lat="43.9825" lon="3.91289">
        <ele>207</ele>
        <time>2014-02-02T09:38:02Z</time>
      </trkpt>
      <trkpt lat="43.98256" lon="3.91277">
        <ele>206</ele>
        <time>2014-02-02T09:38:11Z</time>
      </trkpt>
      <trkpt lat="43.98278" lon="3.91207">
        <ele>208</ele>
        <time>2014-02-02T09:39:00Z</time>
      </trkpt>
      <trkpt lat="43.98287" lon="3.91161">
        <ele>211</ele>
        <time>2014-02-02T09:39:36Z</time>
      </trkpt>
      <trkpt lat="43.98291" lon="3.9115">
        <ele>211</ele>
        <time>2014-02-02T09:39:45Z</time>
      </trkpt>
      <trkpt lat="43.98296" lon="3.91143">
        <ele>211</ele>
        <time>2014-02-02T09:39:53Z</time>
      </trkpt>
      <trkpt lat="43.98322" lon="3.91132">
        <ele>214</ele>
        <time>2014-02-02T09:40:21Z</time>
      </trkpt>
      <trkpt lat="43.98329" lon="3.91124">
        <ele>215</ele>
        <time>2014-02-02T09:40:30Z</time>
      </trkpt>
      <trkpt lat="43.98334" lon="3.91113">
        <ele>216</ele>
        <time>2014-02-02T09:40:37Z</time>
      </trkpt>
      <trkpt lat="43.98345" lon="3.91077">
        <ele>217</ele>
        <time>2014-02-02T09:41:01Z</time>
      </trkpt>
      <trkpt lat="43.98351" lon="3.91063">
        <ele>218</ele>
        <time>2014-02-02T09:41:11Z</time>
      </trkpt>
      <trkpt lat="43.98367" lon="3.91015">
        <ele>218</ele>
        <time>2014-02-02T09:41:42Z</time>
      </trkpt>
      <trkpt lat="43.98372" lon="3.91008">
        <ele>218</ele>
        <time>2014-02-02T09:41:49Z</time>
      </trkpt>
      <trkpt lat="43.98392" lon="3.9099">
        <ele>218</ele>
        <time>2014-02-02T09:42:11Z</time>
      </trkpt>
      <trkpt lat="43.98398" lon="3.90981">
        <ele>217</ele>
        <time>2014-02-02T09:42:18Z</time>
      </trkpt>
      <trkpt lat="43.984" lon="3.90969">
        <ele>217</ele>
        <time>2014-02-02T09:42:25Z</time>
      </trkpt>
      <trkpt lat="43.98404" lon="3.90901">
        <ele>214</ele>
        <time>2014-02-02T09:43:04Z</time>
      </trkpt>
      <trkpt lat="43.98407" lon="3.90875">
        <ele>212</ele>
        <time>2014-02-02T09:43:18Z</time>
      </trkpt>
      <trkpt lat="43.98412" lon="3.9078">
        <ele>212</ele>
        <time>2014-02-02T09:44:12Z</time>
      </trkpt>
      <trkpt lat="43.98416" lon="3.90741">
        <ele>212</ele>
        <time>2014-02-02T09:44:34Z</time>
      </trkpt>
      <trkpt lat="43.98417" lon="3.90714">
        <ele>211</ele>
        <time>2014-02-02T09:44:49Z</time>
      </trkpt>
      <trkpt lat="43.98419" lon="3.90698">
        <ele>211</ele>
        <time>2014-02-02T09:44:58Z</time>
      </trkpt>
      <trkpt lat="43.98422" lon="3.90688">
        <ele>212</ele>
        <time>2014-02-02T09:45:05Z</time>
      </trkpt>
      <trkpt lat="43.98428" lon="3.9068">
        <ele>211</ele>
        <time>2014-02-02T09:45:12Z</time>
      </trkpt>
      <trkpt lat="43.98454" lon="3.90664">
        <ele>212</ele>
        <time>2014-02-02T09:45:39Z</time>
      </trkpt>
      <trkpt lat="43.98466" lon="3.90649">
        <ele>212</ele>
        <time>2014-02-02T09:46:03Z</time>
      </trkpt>
      <trkpt lat="43.98469" lon="3.90649">
        <ele>211</ele>
        <time>2014-02-02T09:46:11Z</time>
      </trkpt>
      <trkpt lat="43.98471" lon="3.90652">
        <ele>205</ele>
        <time>2014-02-02T09:46:45Z</time>
      </trkpt>
      <trkpt lat="43.98488" lon="3.90654">
        <ele>208</ele>
        <time>2014-02-02T09:47:22Z</time>
      </trkpt>
      <trkpt lat="43.98489" lon="3.90653">
        <ele>211</ele>
        <time>2014-02-02T09:47:45Z</time>
      </trkpt>
      <trkpt lat="43.98488" lon="3.90651">
        <ele>213</ele>
        <time>2014-02-02T09:47:59Z</time>
      </trkpt>
      <trkpt lat="43.98499" lon="3.90654">
        <ele>206</ele>
        <time>2014-02-02T09:48:57Z</time>
      </trkpt>
      <trkpt lat="43.98513" lon="3.90652">
        <ele>205</ele>
        <time>2014-02-02T09:49:14Z</time>
      </trkpt>
      <trkpt lat="43.98517" lon="3.90654">
        <ele>205</ele>
        <time>2014-02-02T09:49:21Z</time>
      </trkpt>
      <trkpt lat="43.98524" lon="3.9067">
        <ele>205</ele>
        <time>2014-02-02T09:49:37Z</time>
      </trkpt>
      <trkpt lat="43.9853" lon="3.90688">
        <ele>208</ele>
        <time>2014-02-02T09:49:54Z</time>
      </trkpt>
      <trkpt lat="43.9854" lon="3.90713">
        <ele>208</ele>
        <time>2014-02-02T09:50:11Z</time>
      </trkpt>
      <trkpt lat="43.98551" lon="3.90736">
        <ele>208</ele>
        <time>2014-02-02T09:50:28Z</time>
      </trkpt>
      <trkpt lat="43.98573" lon="3.9079">
        <ele>212</ele>
        <time>2014-02-02T09:51:02Z</time>
      </trkpt>
      <trkpt lat="43.98583" lon="3.90812">
        <ele>213</ele>
        <time>2014-02-02T09:51:17Z</time>
      </trkpt>
      <trkpt lat="43.98588" lon="3.90826">
        <ele>213</ele>
        <time>2014-02-02T09:51:25Z</time>
      </trkpt>
      <trkpt lat="43.98589" lon="3.90848">
        <ele>212</ele>
        <time>2014-02-02T09:51:37Z</time>
      </trkpt>
      <trkpt lat="43.98584" lon="3.9088">
        <ele>211</ele>
        <time>2014-02-02T09:51:54Z</time>
      </trkpt>
      <trkpt lat="43.98577" lon="3.90902">
        <ele>210</ele>
        <time>2014-02-02T09:52:07Z</time>
      </trkpt>
      <trkpt lat="43.98571" lon="3.90919">
        <ele>211</ele>
        <time>2014-02-02T09:52:19Z</time>
      </trkpt>
      <trkpt lat="43.98566" lon="3.90941">
        <ele>212</ele>
        <time>2014-02-02T09:52:34Z</time>
      </trkpt>
      <trkpt lat="43.98558" lon="3.90956">
        <ele>213</ele>
        <time>2014-02-02T09:52:47Z</time>
      </trkpt>
      <trkpt lat="43.98556" lon="3.90963">
        <ele>213</ele>
        <time>2014-02-02T09:52:53Z</time>
      </trkpt>
      <trkpt lat="43.98559" lon="3.90987">
        <ele>215</ele>
        <time>2014-02-02T09:53:15Z</time>
      </trkpt>
      <trkpt lat="43.98571" lon="3.91018">
        <ele>214</ele>
        <time>2014-02-02T09:53:41Z</time>
      </trkpt>
      <trkpt lat="43.98581" lon="3.91038">
        <ele>214</ele>
        <time>2014-02-02T09:53:54Z</time>
      </trkpt>
      <trkpt lat="43.98585" lon="3.91053">
        <ele>215</ele>
        <time>2014-02-02T09:54:03Z</time>
      </trkpt>
      <trkpt lat="43.98584" lon="3.91062">
        <ele>217</ele>
        <time>2014-02-02T09:54:09Z</time>
      </trkpt>
      <trkpt lat="43.98577" lon="3.91086">
        <ele>216</ele>
        <time>2014-02-02T09:54:23Z</time>
      </trkpt>
      <trkpt lat="43.98567" lon="3.91113">
        <ele>217</ele>
        <time>2014-02-02T09:54:43Z</time>
      </trkpt>
      <trkpt lat="43.98563" lon="3.91121">
        <ele>217</ele>
        <time>2014-02-02T09:54:49Z</time>
      </trkpt>
      <trkpt lat="43.98562" lon="3.91134">
        <ele>218</ele>
        <time>2014-02-02T09:54:57Z</time>
      </trkpt>
      <trkpt lat="43.98564" lon="3.91146">
        <ele>219</ele>
        <time>2014-02-02T09:55:04Z</time>
      </trkpt>
      <trkpt lat="43.98581" lon="3.91197">
        <ele>219</ele>
        <time>2014-02-02T09:55:37Z</time>
      </trkpt>
      <trkpt lat="43.98619" lon="3.91262">
        <ele>221</ele>
        <time>2014-02-02T09:56:31Z</time>
      </trkpt>
      <trkpt lat="43.98631" lon="3.91291">
        <ele>221</ele>
        <time>2014-02-02T09:56:51Z</time>
      </trkpt>
      <trkpt lat="43.98637" lon="3.91335">
        <ele>219</ele>
        <time>2014-02-02T09:57:18Z</time>
      </trkpt>
      <trkpt lat="43.98637" lon="3.91345">
        <ele>219</ele>
        <time>2014-02-02T09:57:25Z</time>
      </trkpt>
      <trkpt lat="43.98634" lon="3.91358">
        <ele>219</ele>
        <time>2014-02-02T09:57:34Z</time>
      </trkpt>
      <trkpt lat="43.98626" lon="3.91378">
        <ele>220</ele>
        <time>2014-02-02T09:57:48Z</time>
      </trkpt>
      <trkpt lat="43.98625" lon="3.91391">
        <ele>220</ele>
        <time>2014-02-02T09:57:56Z</time>
      </trkpt>
      <trkpt lat="43.98628" lon="3.91439">
        <ele>222</ele>
        <time>2014-02-02T09:58:29Z</time>
      </trkpt>
      <trkpt lat="43.98632" lon="3.91462">
        <ele>223</ele>
        <time>2014-02-02T09:58:46Z</time>
      </trkpt>
      <trkpt lat="43.98632" lon="3.91485">
        <ele>224</ele>
        <time>2014-02-02T09:59:00Z</time>
      </trkpt>
      <trkpt lat="43.98635" lon="3.91514">
        <ele>224</ele>
        <time>2014-02-02T09:59:16Z</time>
      </trkpt>
      <trkpt lat="43.9864" lon="3.91532">
        <ele>225</ele>
        <time>2014-02-02T09:59:28Z</time>
      </trkpt>
      <trkpt lat="43.98652" lon="3.91551">
        <ele>224</ele>
        <time>2014-02-02T09:59:46Z</time>
      </trkpt>
      <trkpt lat="43.98664" lon="3.91588">
        <ele>225</ele>
        <time>2014-02-02T10:00:18Z</time>
      </trkpt>
      <trkpt lat="43.98674" lon="3.91604">
        <ele>227</ele>
        <time>2014-02-02T10:00:35Z</time>
      </trkpt>
      <trkpt lat="43.98681" lon="3.9162">
        <ele>230</ele>
        <time>2014-02-02T10:00:57Z</time>
      </trkpt>
      <trkpt lat="43.98684" lon="3.91654">
        <ele>233</ele>
        <time>2014-02-02T10:01:30Z</time>
      </trkpt>
      <trkpt lat="43.98703" lon="3.91706">
        <ele>242</ele>
        <time>2014-02-02T10:02:29Z</time>
      </trkpt>
      <trkpt lat="43.98706" lon="3.91709">
        <ele>242</ele>
        <time>2014-02-02T10:02:34Z</time>
      </trkpt>
      <trkpt lat="43.98713" lon="3.9171">
        <ele>243</ele>
        <time>2014-02-02T10:02:47Z</time>
      </trkpt>
      <trkpt lat="43.98716" lon="3.91712">
        <ele>243</ele>
        <time>2014-02-02T10:02:56Z</time>
      </trkpt>
      <trkpt lat="43.98718" lon="3.9172">
        <ele>240</ele>
        <time>2014-02-02T10:03:53Z</time>
      </trkpt>
      <trkpt lat="43.98717" lon="3.91725">
        <ele>238</ele>
        <time>2014-02-02T10:04:12Z</time>
      </trkpt>
      <trkpt lat="43.98719" lon="3.91726">
        <ele>235</ele>
        <time>2014-02-02T10:04:47Z</time>
      </trkpt>
      <trkpt lat="43.98734" lon="3.91724">
        <ele>234</ele>
        <time>2014-02-02T10:05:12Z</time>
      </trkpt>
      <trkpt lat="43.98739" lon="3.91724">
        <ele>234</ele>
        <time>2014-02-02T10:05:17Z</time>
      </trkpt>
      <trkpt lat="43.98769" lon="3.91738">
        <ele>235</ele>
        <time>2014-02-02T10:05:46Z</time>
      </trkpt>
      <trkpt lat="43.98787" lon="3.9174">
        <ele>235</ele>
        <time>2014-02-02T10:06:03Z</time>
      </trkpt>
      <trkpt lat="43.98811" lon="3.91747">
        <ele>236</ele>
        <time>2014-02-02T10:06:25Z</time>
      </trkpt>
      <trkpt lat="43.98843" lon="3.91748">
        <ele>239</ele>
        <time>2014-02-02T10:06:58Z</time>
      </trkpt>
      <trkpt lat="43.98851" lon="3.91749">
        <ele>239</ele>
        <time>2014-02-02T10:07:06Z</time>
      </trkpt>
      <trkpt lat="43.98894" lon="3.91764">
        <ele>241</ele>
        <time>2014-02-02T10:07:55Z</time>
      </trkpt>
      <trkpt lat="43.98911" lon="3.91766">
        <ele>244</ele>
        <time>2014-02-02T10:08:15Z</time>
      </trkpt>
      <trkpt lat="43.98928" lon="3.91771">
        <ele>247</ele>
        <time>2014-02-02T10:08:36Z</time>
      </trkpt>
      <trkpt lat="43.98943" lon="3.91773">
        <ele>250</ele>
        <time>2014-02-02T10:08:53Z</time>
      </trkpt>
      <trkpt lat="43.98972" lon="3.91783">
        <ele>252</ele>
        <time>2014-02-02T10:09:26Z</time>
      </trkpt>
      <trkpt lat="43.99" lon="3.9178">
        <ele>254</ele>
        <time>2014-02-02T10:09:59Z</time>
      </trkpt>
      <trkpt lat="43.99013" lon="3.91773">
        <ele>257</ele>
        <time>2014-02-02T10:10:21Z</time>
      </trkpt>
      <trkpt lat="43.99018" lon="3.91773">
        <ele>258</ele>
        <time>2014-02-02T10:10:29Z</time>
      </trkpt>
      <trkpt lat="43.99036" lon="3.91783">
        <ele>260</ele>
        <time>2014-02-02T10:10:53Z</time>
      </trkpt>
      <trkpt lat="43.9906" lon="3.91785">
        <ele>263</ele>
        <time>2014-02-02T10:11:24Z</time>
      </trkpt>
      <trkpt lat="43.9908" lon="3.91794">
        <ele>266</ele>
        <time>2014-02-02T10:11:48Z</time>
      </trkpt>
      <trkpt lat="43.991" lon="3.918">
        <ele>268</ele>
        <time>2014-02-02T10:12:12Z</time>
      </trkpt>
      <trkpt lat="43.99122" lon="3.91797">
        <ele>271</ele>
        <time>2014-02-02T10:12:46Z</time>
      </trkpt>
      <trkpt lat="43.99135" lon="3.918">
        <ele>273</ele>
        <time>2014-02-02T10:13:03Z</time>
      </trkpt>
      <trkpt lat="43.99139" lon="3.91802">
        <ele>273</ele>
        <time>2014-02-02T10:13:08Z</time>
      </trkpt>
      <trkpt lat="43.99145" lon="3.91811">
        <ele>274</ele>
        <time>2014-02-02T10:13:19Z</time>
      </trkpt>
      <trkpt lat="43.99151" lon="3.91813">
        <ele>275</ele>
        <time>2014-02-02T10:13:28Z</time>
      </trkpt>
      <trkpt lat="43.99157" lon="3.91811">
        <ele>275</ele>
        <time>2014-02-02T10:13:47Z</time>
      </trkpt>
      <trkpt lat="43.99158" lon="3.91806">
        <ele>275</ele>
        <time>2014-02-02T10:13:58Z</time>
      </trkpt>
      <trkpt lat="43.99162" lon="3.91797">
        <ele>278</ele>
        <time>2014-02-02T10:14:21Z</time>
      </trkpt>
      <trkpt lat="43.99162" lon="3.91789">
        <ele>286</ele>
        <time>2014-02-02T10:15:22Z</time>
      </trkpt>
      <trkpt lat="43.99151" lon="3.91776">
        <ele>287</ele>
        <time>2014-02-02T10:15:51Z</time>
      </trkpt>
      <trkpt lat="43.9915" lon="3.91774">
        <ele>289</ele>
        <time>2014-02-02T10:16:01Z</time>
      </trkpt>
      <trkpt lat="43.99151" lon="3.9177">
        <ele>290</ele>
        <time>2014-02-02T10:16:13Z</time>
      </trkpt>
      <trkpt lat="43.9915" lon="3.91768">
        <ele>291</ele>
        <time>2014-02-02T10:16:19Z</time>
      </trkpt>
      <trkpt lat="43.99135" lon="3.91754">
        <ele>294</ele>
        <time>2014-02-02T10:16:43Z</time>
      </trkpt>
      <trkpt lat="43.99125" lon="3.91735">
        <ele>297</ele>
        <time>2014-02-02T10:17:09Z</time>
      </trkpt>
      <trkpt lat="43.99124" lon="3.91723">
        <ele>299</ele>
        <time>2014-02-02T10:17:21Z</time>
      </trkpt>
      <trkpt lat="43.99126" lon="3.91715">
        <ele>299</ele>
        <time>2014-02-02T10:17:29Z</time>
      </trkpt>
      <trkpt lat="43.99122" lon="3.91704">
        <ele>300</ele>
        <time>2014-02-02T10:17:40Z</time>
      </trkpt>
      <trkpt lat="43.99121" lon="3.91694">
        <ele>301</ele>
        <time>2014-02-02T10:17:52Z</time>
      </trkpt>
      <trkpt lat="43.99124" lon="3.91673">
        <ele>304</ele>
        <time>2014-02-02T10:18:15Z</time>
      </trkpt>
      <trkpt lat="43.99123" lon="3.91659">
        <ele>306</ele>
        <time>2014-02-02T10:18:29Z</time>
      </trkpt>
      <trkpt lat="43.99125" lon="3.91655">
        <ele>306</ele>
        <time>2014-02-02T10:18:34Z</time>
      </trkpt>
      <trkpt lat="43.99132" lon="3.9165">
        <ele>308</ele>
        <time>2014-02-02T10:18:43Z</time>
      </trkpt>
      <trkpt lat="43.9914" lon="3.9165">
        <ele>310</ele>
        <time>2014-02-02T10:18:54Z</time>
      </trkpt>
      <trkpt lat="43.99144" lon="3.91652">
        <ele>311</ele>
        <time>2014-02-02T10:19:04Z</time>
      </trkpt>
      <trkpt lat="43.99154" lon="3.91662">
        <ele>314</ele>
        <time>2014-02-02T10:19:44Z</time>
      </trkpt>
      <trkpt lat="43.99163" lon="3.91677">
        <ele>316</ele>
        <time>2014-02-02T10:20:18Z</time>
      </trkpt>
      <trkpt lat="43.99171" lon="3.9168">
        <ele>319</ele>
        <time>2014-02-02T10:20:35Z</time>
      </trkpt>
      <trkpt lat="43.99175" lon="3.91684">
        <ele>323</ele>
        <time>2014-02-02T10:20:52Z</time>
      </trkpt>
      <trkpt lat="43.99183" lon="3.91688">
        <ele>325</ele>
        <time>2014-02-02T10:21:08Z</time>
      </trkpt>
      <trkpt lat="43.99188" lon="3.91696">
        <ele>328</ele>
        <time>2014-02-02T10:21:28Z</time>
      </trkpt>
      <trkpt lat="43.99194" lon="3.91701">
        <ele>327</ele>
        <time>2014-02-02T10:21:42Z</time>
      </trkpt>
      <trkpt lat="43.99197" lon="3.91714">
        <ele>329</ele>
        <time>2014-02-02T10:22:18Z</time>
      </trkpt>
      <trkpt lat="43.99196" lon="3.91714">
        <ele>331</ele>
        <time>2014-02-02T10:22:33Z</time>
      </trkpt>
      <trkpt lat="43.99204" lon="3.91713">
        <ele>335</ele>
        <time>2014-02-02T10:23:07Z</time>
      </trkpt>
      <trkpt lat="43.99209" lon="3.91723">
        <ele>336</ele>
        <time>2014-02-02T10:23:19Z</time>
      </trkpt>
      <trkpt lat="43.99221" lon="3.91729">
        <ele>339</ele>
        <time>2014-02-02T10:23:41Z</time>
      </trkpt>
      <trkpt lat="43.99231" lon="3.9173">
        <ele>341</ele>
        <time>2014-02-02T10:23:57Z</time>
      </trkpt>
      <trkpt lat="43.99239" lon="3.91729">
        <ele>341</ele>
        <time>2014-02-02T10:24:10Z</time>
      </trkpt>
      <trkpt lat="43.99245" lon="3.91731">
        <ele>342</ele>
        <time>2014-02-02T10:24:21Z</time>
      </trkpt>
      <trkpt lat="43.99254" lon="3.91727">
        <ele>352</ele>
        <time>2014-02-02T10:35:29Z</time>
      </trkpt>
      <trkpt lat="43.99246" lon="3.9172">
        <ele>352</ele>
        <time>2014-02-02T10:35:39Z</time>
      </trkpt>
      <trkpt lat="43.99244" lon="3.91716">
        <ele>352</ele>
        <time>2014-02-02T10:35:43Z</time>
      </trkpt>
      <trkpt lat="43.99247" lon="3.91697">
        <ele>352</ele>
        <time>2014-02-02T10:35:56Z</time>
      </trkpt>
      <trkpt lat="43.9925" lon="3.91688">
        <ele>352</ele>
        <time>2014-02-02T10:36:02Z</time>
      </trkpt>
      <trkpt lat="43.99254" lon="3.91683">
        <ele>352</ele>
        <time>2014-02-02T10:36:07Z</time>
      </trkpt>
      <trkpt lat="43.99264" lon="3.91678">
        <ele>351</ele>
        <time>2014-02-02T10:36:17Z</time>
      </trkpt>
      <trkpt lat="43.99279" lon="3.91677">
        <ele>353</ele>
        <time>2014-02-02T10:36:35Z</time>
      </trkpt>
      <trkpt lat="43.99281" lon="3.91678">
        <ele>352</ele>
        <time>2014-02-02T10:36:39Z</time>
      </trkpt>
      <trkpt lat="43.99288" lon="3.91689">
        <ele>353</ele>
        <time>2014-02-02T10:36:48Z</time>
      </trkpt>
      <trkpt lat="43.99293" lon="3.91712">
        <ele>353</ele>
        <time>2014-02-02T10:37:08Z</time>
      </trkpt>
      <trkpt lat="43.99294" lon="3.91722">
        <ele>354</ele>
        <time>2014-02-02T10:37:19Z</time>
      </trkpt>
      <trkpt lat="43.99289" lon="3.91742">
        <ele>354</ele>
        <time>2014-02-02T10:37:42Z</time>
      </trkpt>
      <trkpt lat="43.99295" lon="3.91754">
        <ele>356</ele>
        <time>2014-02-02T10:38:02Z</time>
      </trkpt>
      <trkpt lat="43.99295" lon="3.91759">
        <ele>355</ele>
        <time>2014-02-02T10:38:12Z</time>
      </trkpt>
      <trkpt lat="43.99292" lon="3.91761">
        <ele>353</ele>
        <time>2014-02-02T10:38:57Z</time>
      </trkpt>
      <trkpt lat="43.99285" lon="3.91757">
        <ele>353</ele>
        <time>2014-02-02T10:39:07Z</time>
      </trkpt>
      <trkpt lat="43.99269" lon="3.91736">
        <ele>351</ele>
        <time>2014-02-02T10:39:33Z</time>
      </trkpt>
      <trkpt lat="43.99246" lon="3.9172">
        <ele>353</ele>
        <time>2014-02-02T10:40:27Z</time>
      </trkpt>
      <trkpt lat="43.99245" lon="3.91713">
        <ele>352</ele>
        <time>2014-02-02T10:40:39Z</time>
      </trkpt>
      <trkpt lat="43.99248" lon="3.91711">
        <ele>353</ele>
        <time>2014-02-02T10:41:01Z</time>
      </trkpt>
      <trkpt lat="43.99253" lon="3.91707">
        <ele>357</ele>
        <time>2014-02-02T10:42:33Z</time>
      </trkpt>
      <trkpt lat="43.99251" lon="3.91705">
        <ele>357</ele>
        <time>2014-02-02T10:42:52Z</time>
      </trkpt>
      <trkpt lat="43.9925" lon="3.91706">
        <ele>356</ele>
        <time>2014-02-02T10:43:25Z</time>
      </trkpt>
      <trkpt lat="43.99251" lon="3.91708">
        <ele>350</ele>
        <time>2014-02-02T11:52:21Z</time>
      </trkpt>
      <trkpt lat="43.99249" lon="3.9171">
        <ele>352</ele>
        <time>2014-02-02T11:53:00Z</time>
      </trkpt>
      <trkpt lat="43.99246" lon="3.91715">
        <ele>352</ele>
        <time>2014-02-02T11:53:08Z</time>
      </trkpt>
      <trkpt lat="43.99246" lon="3.91722">
        <ele>353</ele>
        <time>2014-02-02T11:53:13Z</time>
      </trkpt>
      <trkpt lat="43.99249" lon="3.91728">
        <ele>354</ele>
        <time>2014-02-02T11:53:20Z</time>
      </trkpt>
      <trkpt lat="43.99268" lon="3.9174">
        <ele>356</ele>
        <time>2014-02-02T11:53:41Z</time>
      </trkpt>
      <trkpt lat="43.99282" lon="3.91758">
        <ele>356</ele>
        <time>2014-02-02T11:54:07Z</time>
      </trkpt>
      <trkpt lat="43.99281" lon="3.91759">
        <ele>356</ele>
        <time>2014-02-02T11:55:17Z</time>
      </trkpt>
      <trkpt lat="43.99287" lon="3.91765">
        <ele>355</ele>
        <time>2014-02-02T11:56:18Z</time>
      </trkpt>
      <trkpt lat="43.9929" lon="3.9177">
        <ele>340</ele>
        <time>2014-02-02T11:56:47Z</time>
      </trkpt>
      <trkpt lat="43.99293" lon="3.91772">
        <ele>324</ele>
        <time>2014-02-02T11:56:56Z</time>
      </trkpt>
      <trkpt lat="43.99296" lon="3.91775">
        <ele>326</ele>
        <time>2014-02-02T11:57:00Z</time>
      </trkpt>
      <trkpt lat="43.99303" lon="3.91777">
        <ele>329</ele>
        <time>2014-02-02T11:57:10Z</time>
      </trkpt>
      <trkpt lat="43.99308" lon="3.91781">
        <ele>332</ele>
        <time>2014-02-02T11:57:22Z</time>
      </trkpt>
      <trkpt lat="43.99316" lon="3.91779">
        <ele>334</ele>
        <time>2014-02-02T11:57:45Z</time>
      </trkpt>
      <trkpt lat="43.99321" lon="3.91782">
        <ele>335</ele>
        <time>2014-02-02T11:57:58Z</time>
      </trkpt>
      <trkpt lat="43.99323" lon="3.91789">
        <ele>336</ele>
        <time>2014-02-02T11:58:11Z</time>
      </trkpt>
      <trkpt lat="43.99327" lon="3.91793">
        <ele>336</ele>
        <time>2014-02-02T11:58:17Z</time>
      </trkpt>
      <trkpt lat="43.99329" lon="3.91798">
        <ele>336</ele>
        <time>2014-02-02T11:58:25Z</time>
      </trkpt>
      <trkpt lat="43.99329" lon="3.91803">
        <ele>335</ele>
        <time>2014-02-02T11:58:32Z</time>
      </trkpt>
      <trkpt lat="43.99323" lon="3.91811">
        <ele>334</ele>
        <time>2014-02-02T11:59:26Z</time>
      </trkpt>
      <trkpt lat="43.99321" lon="3.91818">
        <ele>334</ele>
        <time>2014-02-02T11:59:38Z</time>
      </trkpt>
      <trkpt lat="43.99331" lon="3.91844">
        <ele>331</ele>
        <time>2014-02-02T12:00:38Z</time>
      </trkpt>
      <trkpt lat="43.99322" lon="3.91848">
        <ele>330</ele>
        <time>2014-02-02T12:01:24Z</time>
      </trkpt>
      <trkpt lat="43.99312" lon="3.91844">
        <ele>329</ele>
        <time>2014-02-02T12:01:43Z</time>
      </trkpt>
      <trkpt lat="43.99308" lon="3.91844">
        <ele>328</ele>
        <time>2014-02-02T12:01:54Z</time>
      </trkpt>
      <trkpt lat="43.99307" lon="3.91849">
        <ele>325</ele>
        <time>2014-02-02T12:02:09Z</time>
      </trkpt>
      <trkpt lat="43.99304" lon="3.91854">
        <ele>322</ele>
        <time>2014-02-02T12:02:33Z</time>
      </trkpt>
      <trkpt lat="43.99303" lon="3.9186">
        <ele>320</ele>
        <time>2014-02-02T12:02:51Z</time>
      </trkpt>
      <trkpt lat="43.99297" lon="3.91866">
        <ele>318</ele>
        <time>2014-02-02T12:03:16Z</time>
      </trkpt>
      <trkpt lat="43.99296" lon="3.91874">
        <ele>313</ele>
        <time>2014-02-02T12:03:33Z</time>
      </trkpt>
      <trkpt lat="43.99304" lon="3.91887">
        <ele>307</ele>
        <time>2014-02-02T12:04:03Z</time>
      </trkpt>
      <trkpt lat="43.99304" lon="3.9189">
        <ele>306</ele>
        <time>2014-02-02T12:04:09Z</time>
      </trkpt>
      <trkpt lat="43.993" lon="3.91897">
        <ele>304</ele>
        <time>2014-02-02T12:04:20Z</time>
      </trkpt>
      <trkpt lat="43.99297" lon="3.91912">
        <ele>301</ele>
        <time>2014-02-02T12:04:38Z</time>
      </trkpt>
      <trkpt lat="43.99298" lon="3.91924">
        <ele>300</ele>
        <time>2014-02-02T12:04:48Z</time>
      </trkpt>
      <trkpt lat="43.99303" lon="3.91938">
        <ele>298</ele>
        <time>2014-02-02T12:05:05Z</time>
      </trkpt>
      <trkpt lat="43.99304" lon="3.91947">
        <ele>297</ele>
        <time>2014-02-02T12:05:14Z</time>
      </trkpt>
      <trkpt lat="43.99302" lon="3.91951">
        <ele>295</ele>
        <time>2014-02-02T12:05:21Z</time>
      </trkpt>
      <trkpt lat="43.99294" lon="3.91956">
        <ele>293</ele>
        <time>2014-02-02T12:05:32Z</time>
      </trkpt>
      <trkpt lat="43.99288" lon="3.91966">
        <ele>290</ele>
        <time>2014-02-02T12:05:46Z</time>
      </trkpt>
      <trkpt lat="43.99284" lon="3.91983">
        <ele>286</ele>
        <time>2014-02-02T12:06:11Z</time>
      </trkpt>
      <trkpt lat="43.99283" lon="3.91993">
        <ele>283</ele>
        <time>2014-02-02T12:06:38Z</time>
      </trkpt>
      <trkpt lat="43.99275" lon="3.92005">
        <ele>279</ele>
        <time>2014-02-02T12:07:11Z</time>
      </trkpt>
      <trkpt lat="43.99272" lon="3.92007">
        <ele>278</ele>
        <time>2014-02-02T12:07:25Z</time>
      </trkpt>
      <trkpt lat="43.99261" lon="3.92009">
        <ele>275</ele>
        <time>2014-02-02T12:07:50Z</time>
      </trkpt>
      <trkpt lat="43.99254" lon="3.92007">
        <ele>269</ele>
        <time>2014-02-02T12:08:12Z</time>
      </trkpt>
      <trkpt lat="43.99251" lon="3.92009">
        <ele>266</ele>
        <time>2014-02-02T12:08:24Z</time>
      </trkpt>
      <trkpt lat="43.99249" lon="3.92013">
        <ele>261</ele>
        <time>2014-02-02T12:08:45Z</time>
      </trkpt>
      <trkpt lat="43.99249" lon="3.92021">
        <ele>257</ele>
        <time>2014-02-02T12:08:56Z</time>
      </trkpt>
      <trkpt lat="43.99247" lon="3.92029">
        <ele>256</ele>
        <time>2014-02-02T12:09:09Z</time>
      </trkpt>
      <trkpt lat="43.99249" lon="3.92038">
        <ele>256</ele>
        <time>2014-02-02T12:09:21Z</time>
      </trkpt>
      <trkpt lat="43.99248" lon="3.92042">
        <ele>255</ele>
        <time>2014-02-02T12:09:27Z</time>
      </trkpt>
      <trkpt lat="43.99245" lon="3.92044">
        <ele>255</ele>
        <time>2014-02-02T12:09:30Z</time>
      </trkpt>
      <trkpt lat="43.99234" lon="3.92042">
        <ele>254</ele>
        <time>2014-02-02T12:09:40Z</time>
      </trkpt>
      <trkpt lat="43.99227" lon="3.92043">
        <ele>252</ele>
        <time>2014-02-02T12:09:47Z</time>
      </trkpt>
      <trkpt lat="43.99215" lon="3.92067">
        <ele>245</ele>
        <time>2014-02-02T12:10:20Z</time>
      </trkpt>
      <trkpt lat="43.99209" lon="3.9207">
        <ele>244</ele>
        <time>2014-02-02T12:10:30Z</time>
      </trkpt>
      <trkpt lat="43.99199" lon="3.92092">
        <ele>242</ele>
        <time>2014-02-02T12:10:51Z</time>
      </trkpt>
      <trkpt lat="43.99196" lon="3.92105">
        <ele>241</ele>
        <time>2014-02-02T12:10:59Z</time>
      </trkpt>
      <trkpt lat="43.99191" lon="3.92115">
        <ele>240</ele>
        <time>2014-02-02T12:11:08Z</time>
      </trkpt>
      <trkpt lat="43.99192" lon="3.92133">
        <ele>239</ele>
        <time>2014-02-02T12:11:22Z</time>
      </trkpt>
      <trkpt lat="43.99197" lon="3.92141">
        <ele>237</ele>
        <time>2014-02-02T12:11:34Z</time>
      </trkpt>
      <trkpt lat="43.99197" lon="3.92162">
        <ele>233</ele>
        <time>2014-02-02T12:11:53Z</time>
      </trkpt>
      <trkpt lat="43.9919" lon="3.92183">
        <ele>230</ele>
        <time>2014-02-02T12:12:07Z</time>
      </trkpt>
      <trkpt lat="43.99185" lon="3.92189">
        <ele>229</ele>
        <time>2014-02-02T12:12:17Z</time>
      </trkpt>
      <trkpt lat="43.9918" lon="3.92202">
        <ele>228</ele>
        <time>2014-02-02T12:12:28Z</time>
      </trkpt>
      <trkpt lat="43.99173" lon="3.92213">
        <ele>228</ele>
        <time>2014-02-02T12:12:42Z</time>
      </trkpt>
      <trkpt lat="43.99174" lon="3.92232">
        <ele>224</ele>
        <time>2014-02-02T12:13:09Z</time>
      </trkpt>
      <trkpt lat="43.99176" lon="3.92235">
        <ele>221</ele>
        <time>2014-02-02T12:13:20Z</time>
      </trkpt>
      <trkpt lat="43.9919" lon="3.92244">
        <ele>217</ele>
        <time>2014-02-02T12:13:39Z</time>
      </trkpt>
      <trkpt lat="43.99195" lon="3.9225">
        <ele>215</ele>
        <time>2014-02-02T12:13:45Z</time>
      </trkpt>
      <trkpt lat="43.992" lon="3.92252">
        <ele>215</ele>
        <time>2014-02-02T12:13:49Z</time>
      </trkpt>
      <trkpt lat="43.99226" lon="3.92254">
        <ele>214</ele>
        <time>2014-02-02T12:14:20Z</time>
      </trkpt>
      <trkpt lat="43.99229" lon="3.92257">
        <ele>215</ele>
        <time>2014-02-02T12:14:37Z</time>
      </trkpt>
      <trkpt lat="43.9923" lon="3.92257">
        <ele>215</ele>
        <time>2014-02-02T12:16:09Z</time>
      </trkpt>
      <trkpt lat="43.99227" lon="3.9227">
        <ele>213</ele>
        <time>2014-02-02T12:16:25Z</time>
      </trkpt>
      <trkpt lat="43.99227" lon="3.92279">
        <ele>212</ele>
        <time>2014-02-02T12:16:36Z</time>
      </trkpt>
      <trkpt lat="43.99233" lon="3.92289">
        <ele>211</ele>
        <time>2014-02-02T12:16:45Z</time>
      </trkpt>
      <trkpt lat="43.99249" lon="3.92305">
        <ele>206</ele>
        <time>2014-02-02T12:17:08Z</time>
      </trkpt>
      <trkpt lat="43.99252" lon="3.92304">
        <ele>206</ele>
        <time>2014-02-02T12:17:16Z</time>
      </trkpt>
      <trkpt lat="43.99287" lon="3.92325">
        <ele>201</ele>
        <time>2014-02-02T12:17:53Z</time>
      </trkpt>
      <trkpt lat="43.99302" lon="3.9233">
        <ele>202</ele>
        <time>2014-02-02T12:18:06Z</time>
      </trkpt>
      <trkpt lat="43.99327" lon="3.92336">
        <ele>203</ele>
        <time>2014-02-02T12:18:28Z</time>
      </trkpt>
      <trkpt lat="43.99356" lon="3.92339">
        <ele>204</ele>
        <time>2014-02-02T12:18:56Z</time>
      </trkpt>
      <trkpt lat="43.99378" lon="3.92344">
        <ele>205</ele>
        <time>2014-02-02T12:19:15Z</time>
      </trkpt>
      <trkpt lat="43.99395" lon="3.92344">
        <ele>206</ele>
        <time>2014-02-02T12:19:30Z</time>
      </trkpt>
      <trkpt lat="43.9941" lon="3.9234">
        <ele>207</ele>
        <time>2014-02-02T12:19:42Z</time>
      </trkpt>
      <trkpt lat="43.99453" lon="3.92324">
        <ele>209</ele>
        <time>2014-02-02T12:20:22Z</time>
      </trkpt>
      <trkpt lat="43.99487" lon="3.92308">
        <ele>213</ele>
        <time>2014-02-02T12:20:54Z</time>
      </trkpt>
      <trkpt lat="43.99497" lon="3.92306">
        <ele>213</ele>
        <time>2014-02-02T12:21:03Z</time>
      </trkpt>
      <trkpt lat="43.99511" lon="3.92309">
        <ele>214</ele>
        <time>2014-02-02T12:21:13Z</time>
      </trkpt>
      <trkpt lat="43.99554" lon="3.92329">
        <ele>214</ele>
        <time>2014-02-02T12:21:49Z</time>
      </trkpt>
      <trkpt lat="43.9958" lon="3.92345">
        <ele>214</ele>
        <time>2014-02-02T12:22:13Z</time>
      </trkpt>
      <trkpt lat="43.99594" lon="3.92359">
        <ele>214</ele>
        <time>2014-02-02T12:22:27Z</time>
      </trkpt>
      <trkpt lat="43.99598" lon="3.92368">
        <ele>214</ele>
        <time>2014-02-02T12:22:33Z</time>
      </trkpt>
      <trkpt lat="43.9961" lon="3.92406">
        <ele>214</ele>
        <time>2014-02-02T12:23:00Z</time>
      </trkpt>
      <trkpt lat="43.99619" lon="3.92426">
        <ele>214</ele>
        <time>2014-02-02T12:23:15Z</time>
      </trkpt>
      <trkpt lat="43.99625" lon="3.92446">
        <ele>215</ele>
        <time>2014-02-02T12:23:29Z</time>
      </trkpt>
      <trkpt lat="43.99639" lon="3.92467">
        <ele>216</ele>
        <time>2014-02-02T12:23:47Z</time>
      </trkpt>
      <trkpt lat="43.99645" lon="3.92483">
        <ele>217</ele>
        <time>2014-02-02T12:24:18Z</time>
      </trkpt>
      <trkpt lat="43.99649" lon="3.92484">
        <ele>217</ele>
        <time>2014-02-02T12:24:22Z</time>
      </trkpt>
      <trkpt lat="43.99664" lon="3.92482">
        <ele>216</ele>
        <time>2014-02-02T12:24:35Z</time>
      </trkpt>
      <trkpt lat="43.99678" lon="3.92485">
        <ele>217</ele>
        <time>2014-02-02T12:24:47Z</time>
      </trkpt>
      <trkpt lat="43.99682" lon="3.92487">
        <ele>217</ele>
        <time>2014-02-02T12:24:53Z</time>
      </trkpt>
      <trkpt lat="43.99682" lon="3.92492">
        <ele>218</ele>
        <time>2014-02-02T12:25:11Z</time>
      </trkpt>
      <trkpt lat="43.99688" lon="3.9249">
        <ele>219</ele>
        <time>2014-02-02T12:25:36Z</time>
      </trkpt>
      <trkpt lat="43.99692" lon="3.92491">
        <ele>220</ele>
        <time>2014-02-02T12:25:47Z</time>
      </trkpt>
      <trkpt lat="43.99695" lon="3.92499">
        <ele>220</ele>
        <time>2014-02-02T12:25:58Z</time>
      </trkpt>
      <trkpt lat="43.99693" lon="3.92508">
        <ele>220</ele>
        <time>2014-02-02T12:26:05Z</time>
      </trkpt>
      <trkpt lat="43.99685" lon="3.92529">
        <ele>220</ele>
        <time>2014-02-02T12:26:23Z</time>
      </trkpt>
      <trkpt lat="43.99684" lon="3.92541">
        <ele>217</ele>
        <time>2014-02-02T12:26:52Z</time>
      </trkpt>
      <trkpt lat="43.99673" lon="3.92575">
        <ele>216</ele>
        <time>2014-02-02T12:28:28Z</time>
      </trkpt>
      <trkpt lat="43.99612" lon="3.92655">
        <ele>217</ele>
        <time>2014-02-02T12:29:43Z</time>
      </trkpt>
      <trkpt lat="43.9959" lon="3.92681">
        <ele>218</ele>
        <time>2014-02-02T12:30:08Z</time>
      </trkpt>
      <trkpt lat="43.99576" lon="3.92691">
        <ele>218</ele>
        <time>2014-02-02T12:30:25Z</time>
      </trkpt>
      <trkpt lat="43.99566" lon="3.92696">
        <ele>218</ele>
        <time>2014-02-02T12:30:35Z</time>
      </trkpt>
      <trkpt lat="43.99544" lon="3.92702">
        <ele>218</ele>
        <time>2014-02-02T12:30:54Z</time>
      </trkpt>
      <trkpt lat="43.99523" lon="3.92705">
        <ele>218</ele>
        <time>2014-02-02T12:31:12Z</time>
      </trkpt>
      <trkpt lat="43.99507" lon="3.92711">
        <ele>218</ele>
        <time>2014-02-02T12:31:26Z</time>
      </trkpt>
      <trkpt lat="43.99494" lon="3.92719">
        <ele>218</ele>
        <time>2014-02-02T12:31:37Z</time>
      </trkpt>
      <trkpt lat="43.9947" lon="3.92739">
        <ele>219</ele>
        <time>2014-02-02T12:32:00Z</time>
      </trkpt>
      <trkpt lat="43.99452" lon="3.92752">
        <ele>218</ele>
        <time>2014-02-02T12:32:17Z</time>
      </trkpt>
      <trkpt lat="43.99407" lon="3.92769">
        <ele>215</ele>
        <time>2014-02-02T12:32:57Z</time>
      </trkpt>
      <trkpt lat="43.99392" lon="3.92778">
        <ele>214</ele>
        <time>2014-02-02T12:33:10Z</time>
      </trkpt>
      <trkpt lat="43.99384" lon="3.92785">
        <ele>215</ele>
        <time>2014-02-02T12:33:18Z</time>
      </trkpt>
      <trkpt lat="43.99376" lon="3.92796">
        <ele>214</ele>
        <time>2014-02-02T12:33:28Z</time>
      </trkpt>
      <trkpt lat="43.99351" lon="3.92844">
        <ele>211</ele>
        <time>2014-02-02T12:34:02Z</time>
      </trkpt>
      <trkpt lat="43.99344" lon="3.92863">
        <ele>212</ele>
        <time>2014-02-02T12:34:14Z</time>
      </trkpt>
      <trkpt lat="43.99317" lon="3.92963">
        <ele>212</ele>
        <time>2014-02-02T12:35:16Z</time>
      </trkpt>
      <trkpt lat="43.99309" lon="3.92987">
        <ele>212</ele>
        <time>2014-02-02T12:35:31Z</time>
      </trkpt>
      <trkpt lat="43.99305" lon="3.9301">
        <ele>212</ele>
        <time>2014-02-02T12:35:46Z</time>
      </trkpt>
      <trkpt lat="43.99305" lon="3.93024">
        <ele>212</ele>
        <time>2014-02-02T12:35:54Z</time>
      </trkpt>
      <trkpt lat="43.99311" lon="3.93077">
        <ele>213</ele>
        <time>2014-02-02T12:36:28Z</time>
      </trkpt>
      <trkpt lat="43.99315" lon="3.93111">
        <ele>211</ele>
        <time>2014-02-02T12:36:52Z</time>
      </trkpt>
      <trkpt lat="43.99322" lon="3.93151">
        <ele>213</ele>
        <time>2014-02-02T12:37:18Z</time>
      </trkpt>
      <trkpt lat="43.99325" lon="3.93185">
        <ele>214</ele>
        <time>2014-02-02T12:37:40Z</time>
      </trkpt>
      <trkpt lat="43.99325" lon="3.93222">
        <ele>215</ele>
        <time>2014-02-02T12:38:03Z</time>
      </trkpt>
      <trkpt lat="43.99321" lon="3.93268">
        <ele>217</ele>
        <time>2014-02-02T12:38:36Z</time>
      </trkpt>
      <trkpt lat="43.99323" lon="3.93278">
        <ele>218</ele>
        <time>2014-02-02T12:39:03Z</time>
      </trkpt>
      <trkpt lat="43.99324" lon="3.93281">
        <ele>218</ele>
        <time>2014-02-02T12:39:08Z</time>
      </trkpt>
      <trkpt lat="43.99331" lon="3.93285">
        <ele>220</ele>
        <time>2014-02-02T12:40:09Z</time>
      </trkpt>
      <trkpt lat="43.99334" lon="3.93282">
        <ele>220</ele>
        <time>2014-02-02T12:40:15Z</time>
      </trkpt>
      <trkpt lat="43.99346" lon="3.93264">
        <ele>220</ele>
        <time>2014-02-02T12:40:37Z</time>
      </trkpt>
      <trkpt lat="43.99353" lon="3.93255">
        <ele>222</ele>
        <time>2014-02-02T12:40:48Z</time>
      </trkpt>
      <trkpt lat="43.9937" lon="3.93227">
        <ele>223</ele>
        <time>2014-02-02T12:41:11Z</time>
      </trkpt>
      <trkpt lat="43.99394" lon="3.93198">
        <ele>224</ele>
        <time>2014-02-02T12:41:36Z</time>
      </trkpt>
      <trkpt lat="43.99409" lon="3.93185">
        <ele>225</ele>
        <time>2014-02-02T12:41:51Z</time>
      </trkpt>
      <trkpt lat="43.99454" lon="3.93159">
        <ele>229</ele>
        <time>2014-02-02T12:42:32Z</time>
      </trkpt>
      <trkpt lat="43.99467" lon="3.93154">
        <ele>230</ele>
        <time>2014-02-02T12:42:43Z</time>
      </trkpt>
      <trkpt lat="43.99518" lon="3.93146">
        <ele>232</ele>
        <time>2014-02-02T12:43:23Z</time>
      </trkpt>
      <trkpt lat="43.99526" lon="3.93148">
        <ele>232</ele>
        <time>2014-02-02T12:43:30Z</time>
      </trkpt>
      <trkpt lat="43.99549" lon="3.93148">
        <ele>233</ele>
        <time>2014-02-02T12:43:50Z</time>
      </trkpt>
      <trkpt lat="43.99554" lon="3.93151">
        <ele>233</ele>
        <time>2014-02-02T12:43:55Z</time>
      </trkpt>
      <trkpt lat="43.99554" lon="3.93157">
        <ele>233</ele>
        <time>2014-02-02T12:44:01Z</time>
      </trkpt>
      <trkpt lat="43.99543" lon="3.93175">
        <ele>233</ele>
        <time>2014-02-02T12:44:20Z</time>
      </trkpt>
      <trkpt lat="43.9954" lon="3.93187">
        <ele>233</ele>
        <time>2014-02-02T12:44:32Z</time>
      </trkpt>
      <trkpt lat="43.99537" lon="3.93223">
        <ele>232</ele>
        <time>2014-02-02T12:45:06Z</time>
      </trkpt>
      <trkpt lat="43.99538" lon="3.93242">
        <ele>234</ele>
        <time>2014-02-02T12:45:20Z</time>
      </trkpt>
      <trkpt lat="43.99543" lon="3.9326">
        <ele>234</ele>
        <time>2014-02-02T12:45:35Z</time>
      </trkpt>
      <trkpt lat="43.99552" lon="3.93273">
        <ele>236</ele>
        <time>2014-02-02T12:45:48Z</time>
      </trkpt>
      <trkpt lat="43.99559" lon="3.93302">
        <ele>237</ele>
        <time>2014-02-02T12:46:10Z</time>
      </trkpt>
      <trkpt lat="43.99563" lon="3.93329">
        <ele>238</ele>
        <time>2014-02-02T12:46:33Z</time>
      </trkpt>
      <trkpt lat="43.99563" lon="3.93343">
        <ele>238</ele>
        <time>2014-02-02T12:46:45Z</time>
      </trkpt>
      <trkpt lat="43.99561" lon="3.93368">
        <ele>239</ele>
        <time>2014-02-02T12:47:05Z</time>
      </trkpt>
      <trkpt lat="43.99562" lon="3.93375">
        <ele>240</ele>
        <time>2014-02-02T12:47:12Z</time>
      </trkpt>
      <trkpt lat="43.9958" lon="3.93416">
        <ele>243</ele>
        <time>2014-02-02T12:47:48Z</time>
      </trkpt>
      <trkpt lat="43.99591" lon="3.93454">
        <ele>246</ele>
        <time>2014-02-02T12:48:23Z</time>
      </trkpt>
      <trkpt lat="43.99602" lon="3.93476">
        <ele>248</ele>
        <time>2014-02-02T12:48:40Z</time>
      </trkpt>
      <trkpt lat="43.9963" lon="3.93503">
        <ele>250</ele>
        <time>2014-02-02T12:49:14Z</time>
      </trkpt>
      <trkpt lat="43.9964" lon="3.93516">
        <ele>251</ele>
        <time>2014-02-02T12:49:27Z</time>
      </trkpt>
      <trkpt lat="43.99645" lon="3.93529">
        <ele>251</ele>
        <time>2014-02-02T12:49:39Z</time>
      </trkpt>
      <trkpt lat="43.99649" lon="3.93535">
        <ele>252</ele>
        <time>2014-02-02T12:49:45Z</time>
      </trkpt>
      <trkpt lat="43.99657" lon="3.93542">
        <ele>252</ele>
        <time>2014-02-02T12:49:53Z</time>
      </trkpt>
      <trkpt lat="43.9969" lon="3.93566">
        <ele>256</ele>
        <time>2014-02-02T12:50:33Z</time>
      </trkpt>
      <trkpt lat="43.99699" lon="3.93572">
        <ele>256</ele>
        <time>2014-02-02T12:50:43Z</time>
      </trkpt>
      <trkpt lat="43.99715" lon="3.93578">
        <ele>258</ele>
        <time>2014-02-02T12:51:00Z</time>
      </trkpt>
      <trkpt lat="43.99738" lon="3.93594">
        <ele>260</ele>
        <time>2014-02-02T12:51:27Z</time>
      </trkpt>
      <trkpt lat="43.99744" lon="3.936">
        <ele>261</ele>
        <time>2014-02-02T12:51:35Z</time>
      </trkpt>
      <trkpt lat="43.99751" lon="3.93609">
        <ele>262</ele>
        <time>2014-02-02T12:51:45Z</time>
      </trkpt>
      <trkpt lat="43.9976" lon="3.93628">
        <ele>263</ele>
        <time>2014-02-02T12:52:02Z</time>
      </trkpt>
      <trkpt lat="43.99774" lon="3.9365">
        <ele>265</ele>
        <time>2014-02-02T12:52:24Z</time>
      </trkpt>
      <trkpt lat="43.99813" lon="3.93677">
        <ele>270</ele>
        <time>2014-02-02T12:53:09Z</time>
      </trkpt>
      <trkpt lat="43.99826" lon="3.93683">
        <ele>271</ele>
        <time>2014-02-02T12:53:21Z</time>
      </trkpt>
      <trkpt lat="43.99834" lon="3.93689">
        <ele>272</ele>
        <time>2014-02-02T12:53:30Z</time>
      </trkpt>
      <trkpt lat="43.9986" lon="3.93711">
        <ele>274</ele>
        <time>2014-02-02T12:54:02Z</time>
      </trkpt>
      <trkpt lat="43.99863" lon="3.93715">
        <ele>275</ele>
        <time>2014-02-02T12:54:07Z</time>
      </trkpt>
      <trkpt lat="43.99867" lon="3.93741">
        <ele>276</ele>
        <time>2014-02-02T12:54:30Z</time>
      </trkpt>
      <trkpt lat="43.99879" lon="3.93762">
        <ele>279</ele>
        <time>2014-02-02T12:54:51Z</time>
      </trkpt>
      <trkpt lat="43.99881" lon="3.93771">
        <ele>279</ele>
        <time>2014-02-02T12:54:57Z</time>
      </trkpt>
      <trkpt lat="43.99881" lon="3.93789">
        <ele>280</ele>
        <time>2014-02-02T12:55:10Z</time>
      </trkpt>
      <trkpt lat="43.99883" lon="3.9381">
        <ele>281</ele>
        <time>2014-02-02T12:55:26Z</time>
      </trkpt>
      <trkpt lat="43.99882" lon="3.93824">
        <ele>282</ele>
        <time>2014-02-02T12:55:40Z</time>
      </trkpt>
      <trkpt lat="43.99878" lon="3.93837">
        <ele>283</ele>
        <time>2014-02-02T12:55:50Z</time>
      </trkpt>
      <trkpt lat="43.99878" lon="3.93838">
        <ele>285</ele>
        <time>2014-02-02T12:57:26Z</time>
      </trkpt>
      <trkpt lat="43.99883" lon="3.93858">
        <ele>284</ele>
        <time>2014-02-02T12:57:39Z</time>
      </trkpt>
      <trkpt lat="43.99893" lon="3.93876">
        <ele>283</ele>
        <time>2014-02-02T12:57:53Z</time>
      </trkpt>
      <trkpt lat="43.99901" lon="3.93895">
        <ele>283</ele>
        <time>2014-02-02T12:58:08Z</time>
      </trkpt>
      <trkpt lat="43.99916" lon="3.93908">
        <ele>283</ele>
        <time>2014-02-02T12:58:32Z</time>
      </trkpt>
      <trkpt lat="43.99928" lon="3.93926">
        <ele>284</ele>
        <time>2014-02-02T12:58:51Z</time>
      </trkpt>
      <trkpt lat="43.99928" lon="3.93937">
        <ele>283</ele>
        <time>2014-02-02T12:59:00Z</time>
      </trkpt>
      <trkpt lat="43.99919" lon="3.93958">
        <ele>283</ele>
        <time>2014-02-02T12:59:16Z</time>
      </trkpt>
      <trkpt lat="43.99919" lon="3.93979">
        <ele>283</ele>
        <time>2014-02-02T12:59:31Z</time>
      </trkpt>
      <trkpt lat="43.99916" lon="3.93991">
        <ele>283</ele>
        <time>2014-02-02T12:59:43Z</time>
      </trkpt>
      <trkpt lat="43.99913" lon="3.9399">
        <ele>283</ele>
        <time>2014-02-02T13:00:54Z</time>
      </trkpt>
      <trkpt lat="43.99913" lon="3.93986">
        <ele>281</ele>
        <time>2014-02-02T13:02:27Z</time>
      </trkpt>
      <trkpt lat="43.99909" lon="3.93983">
        <ele>280</ele>
        <time>2014-02-02T13:02:36Z</time>
      </trkpt>
      <trkpt lat="43.99903" lon="3.93984">
        <ele>280</ele>
        <time>2014-02-02T13:02:46Z</time>
      </trkpt>
      <trkpt lat="43.99894" lon="3.9398">
        <ele>280</ele>
        <time>2014-02-02T13:02:59Z</time>
      </trkpt>
      <trkpt lat="43.9989" lon="3.93974">
        <ele>280</ele>
        <time>2014-02-02T13:03:06Z</time>
      </trkpt>
      <trkpt lat="43.99882" lon="3.93956">
        <ele>275</ele>
        <time>2014-02-02T13:03:20Z</time>
      </trkpt>
      <trkpt lat="43.99869" lon="3.93943">
        <ele>273</ele>
        <time>2014-02-02T13:03:39Z</time>
      </trkpt>
      <trkpt lat="43.99861" lon="3.93943">
        <ele>271</ele>
        <time>2014-02-02T13:03:52Z</time>
      </trkpt>
      <trkpt lat="43.99852" lon="3.9395">
        <ele>271</ele>
        <time>2014-02-02T13:04:03Z</time>
      </trkpt>
      <trkpt lat="43.99847" lon="3.93951">
        <ele>269</ele>
        <time>2014-02-02T13:04:11Z</time>
      </trkpt>
      <trkpt lat="43.99837" lon="3.93948">
        <ele>269</ele>
        <time>2014-02-02T13:04:23Z</time>
      </trkpt>
      <trkpt lat="43.99831" lon="3.93943">
        <ele>270</ele>
        <time>2014-02-02T13:04:31Z</time>
      </trkpt>
      <trkpt lat="43.99825" lon="3.93935">
        <ele>271</ele>
        <time>2014-02-02T13:04:40Z</time>
      </trkpt>
      <trkpt lat="43.99816" lon="3.93914">
        <ele>269</ele>
        <time>2014-02-02T13:05:02Z</time>
      </trkpt>
      <trkpt lat="43.99794" lon="3.93895">
        <ele>267</ele>
        <time>2014-02-02T13:05:33Z</time>
      </trkpt>
      <trkpt lat="43.99788" lon="3.93888">
        <ele>267</ele>
        <time>2014-02-02T13:05:41Z</time>
      </trkpt>
      <trkpt lat="43.99769" lon="3.93858">
        <ele>267</ele>
        <time>2014-02-02T13:06:06Z</time>
      </trkpt>
      <trkpt lat="43.99761" lon="3.93839">
        <ele>265</ele>
        <time>2014-02-02T13:06:22Z</time>
      </trkpt>
      <trkpt lat="43.99737" lon="3.93813">
        <ele>259</ele>
        <time>2014-02-02T13:07:01Z</time>
      </trkpt>
      <trkpt lat="43.99717" lon="3.93794">
        <ele>255</ele>
        <time>2014-02-02T13:07:28Z</time>
      </trkpt>
      <trkpt lat="43.99708" lon="3.93781">
        <ele>253</ele>
        <time>2014-02-02T13:07:41Z</time>
      </trkpt>
      <trkpt lat="43.99687" lon="3.93736">
        <ele>250</ele>
        <time>2014-02-02T13:08:14Z</time>
      </trkpt>
      <trkpt lat="43.9968" lon="3.93725">
        <ele>248</ele>
        <time>2014-02-02T13:08:23Z</time>
      </trkpt>
      <trkpt lat="43.9967" lon="3.93715">
        <ele>247</ele>
        <time>2014-02-02T13:08:34Z</time>
      </trkpt>
      <trkpt lat="43.99657" lon="3.93697">
        <ele>245</ele>
        <time>2014-02-02T13:08:51Z</time>
      </trkpt>
      <trkpt lat="43.9965" lon="3.9369">
        <ele>244</ele>
        <time>2014-02-02T13:08:59Z</time>
      </trkpt>
      <trkpt lat="43.99631" lon="3.93681">
        <ele>243</ele>
        <time>2014-02-02T13:09:17Z</time>
      </trkpt>
      <trkpt lat="43.9962" lon="3.93671">
        <ele>243</ele>
        <time>2014-02-02T13:09:29Z</time>
      </trkpt>
      <trkpt lat="43.99605" lon="3.93662">
        <ele>242</ele>
        <time>2014-02-02T13:09:44Z</time>
      </trkpt>
      <trkpt lat="43.9959" lon="3.93637">
        <ele>242</ele>
        <time>2014-02-02T13:10:06Z</time>
      </trkpt>
      <trkpt lat="43.99562" lon="3.93602">
        <ele>242</ele>
        <time>2014-02-02T13:10:38Z</time>
      </trkpt>
      <trkpt lat="43.9954" lon="3.93561">
        <ele>239</ele>
        <time>2014-02-02T13:11:11Z</time>
      </trkpt>
      <trkpt lat="43.99522" lon="3.93534">
        <ele>239</ele>
        <time>2014-02-02T13:11:35Z</time>
      </trkpt>
      <trkpt lat="43.99497" lon="3.93507">
        <ele>240</ele>
        <time>2014-02-02T13:12:03Z</time>
      </trkpt>
      <trkpt lat="43.9949" lon="3.93504">
        <ele>238</ele>
        <time>2014-02-02T13:12:10Z</time>
      </trkpt>
      <trkpt lat="43.99476" lon="3.93501">
        <ele>236</ele>
        <time>2014-02-02T13:12:25Z</time>
      </trkpt>
      <trkpt lat="43.99446" lon="3.93508">
        <ele>231</ele>
        <time>2014-02-02T13:12:54Z</time>
      </trkpt>
      <trkpt lat="43.99425" lon="3.93505">
        <ele>230</ele>
        <time>2014-02-02T13:13:17Z</time>
      </trkpt>
      <trkpt lat="43.9942" lon="3.93508">
        <ele>230</ele>
        <time>2014-02-02T13:13:31Z</time>
      </trkpt>
      <trkpt lat="43.99417" lon="3.93508">
        <ele>228</ele>
        <time>2014-02-02T13:13:40Z</time>
      </trkpt>
      <trkpt lat="43.99415" lon="3.93504">
        <ele>216</ele>
        <time>2014-02-02T13:15:19Z</time>
      </trkpt>
      <trkpt lat="43.99412" lon="3.93506">
        <ele>217</ele>
        <time>2014-02-02T13:15:36Z</time>
      </trkpt>
      <trkpt lat="43.99402" lon="3.93517">
        <ele>216</ele>
        <time>2014-02-02T13:15:48Z</time>
      </trkpt>
      <trkpt lat="43.99394" lon="3.93517">
        <ele>216</ele>
        <time>2014-02-02T13:15:56Z</time>
      </trkpt>
      <trkpt lat="43.99353" lon="3.93489">
        <ele>218</ele>
        <time>2014-02-02T13:16:35Z</time>
      </trkpt>
      <trkpt lat="43.99337" lon="3.93477">
        <ele>219</ele>
        <time>2014-02-02T13:16:50Z</time>
      </trkpt>
      <trkpt lat="43.99319" lon="3.93459">
        <ele>220</ele>
        <time>2014-02-02T13:17:08Z</time>
      </trkpt>
      <trkpt lat="43.99311" lon="3.93447">
        <ele>219</ele>
        <time>2014-02-02T13:17:17Z</time>
      </trkpt>
      <trkpt lat="43.99293" lon="3.93405">
        <ele>219</ele>
        <time>2014-02-02T13:17:46Z</time>
      </trkpt>
      <trkpt lat="43.99284" lon="3.93396">
        <ele>218</ele>
        <time>2014-02-02T13:17:58Z</time>
      </trkpt>
      <trkpt lat="43.99281" lon="3.93397">
        <ele>218</ele>
        <time>2014-02-02T13:18:01Z</time>
      </trkpt>
      <trkpt lat="43.99277" lon="3.93401">
        <ele>218</ele>
        <time>2014-02-02T13:18:08Z</time>
      </trkpt>
      <trkpt lat="43.99257" lon="3.9344">
        <ele>213</ele>
        <time>2014-02-02T13:18:43Z</time>
      </trkpt>
      <trkpt lat="43.9923" lon="3.93471">
        <ele>212</ele>
        <time>2014-02-02T13:19:12Z</time>
      </trkpt>
      <trkpt lat="43.99201" lon="3.93498">
        <ele>211</ele>
        <time>2014-02-02T13:19:46Z</time>
      </trkpt>
      <trkpt lat="43.99191" lon="3.93502">
        <ele>212</ele>
        <time>2014-02-02T13:19:54Z</time>
      </trkpt>
      <trkpt lat="43.99173" lon="3.93507">
        <ele>212</ele>
        <time>2014-02-02T13:20:10Z</time>
      </trkpt>
      <trkpt lat="43.99146" lon="3.93511">
        <ele>214</ele>
        <time>2014-02-02T13:20:31Z</time>
      </trkpt>
      <trkpt lat="43.99134" lon="3.93511">
        <ele>215</ele>
        <time>2014-02-02T13:20:42Z</time>
      </trkpt>
      <trkpt lat="43.99083" lon="3.93523">
        <ele>216</ele>
        <time>2014-02-02T13:21:23Z</time>
      </trkpt>
      <trkpt lat="43.99074" lon="3.93524">
        <ele>216</ele>
        <time>2014-02-02T13:21:32Z</time>
      </trkpt>
      <trkpt lat="43.99049" lon="3.93522">
        <ele>217</ele>
        <time>2014-02-02T13:22:13Z</time>
      </trkpt>
      <trkpt lat="43.98986" lon="3.93508">
        <ele>216</ele>
        <time>2014-02-02T13:23:03Z</time>
      </trkpt>
      <trkpt lat="43.98961" lon="3.93505">
        <ele>216</ele>
        <time>2014-02-02T13:23:24Z</time>
      </trkpt>
      <trkpt lat="43.98934" lon="3.93504">
        <ele>216</ele>
        <time>2014-02-02T13:23:46Z</time>
      </trkpt>
      <trkpt lat="43.9888" lon="3.9351">
        <ele>216</ele>
        <time>2014-02-02T13:24:29Z</time>
      </trkpt>
      <trkpt lat="43.98859" lon="3.93514">
        <ele>216</ele>
        <time>2014-02-02T13:24:46Z</time>
      </trkpt>
      <trkpt lat="43.98798" lon="3.9352">
        <ele>215</ele>
        <time>2014-02-02T13:25:34Z</time>
      </trkpt>
      <trkpt lat="43.9872" lon="3.93534">
        <ele>211</ele>
        <time>2014-02-02T13:26:40Z</time>
      </trkpt>
      <trkpt lat="43.98706" lon="3.93543">
        <ele>211</ele>
        <time>2014-02-02T13:26:53Z</time>
      </trkpt>
      <trkpt lat="43.98693" lon="3.93566">
        <ele>211</ele>
        <time>2014-02-02T13:27:10Z</time>
      </trkpt>
      <trkpt lat="43.98678" lon="3.93603">
        <ele>210</ele>
        <time>2014-02-02T13:27:35Z</time>
      </trkpt>
      <trkpt lat="43.98669" lon="3.93644">
        <ele>209</ele>
        <time>2014-02-02T13:28:00Z</time>
      </trkpt>
      <trkpt lat="43.98664" lon="3.93696">
        <ele>209</ele>
        <time>2014-02-02T13:28:31Z</time>
      </trkpt>
      <trkpt lat="43.98664" lon="3.93722">
        <ele>209</ele>
        <time>2014-02-02T13:28:47Z</time>
      </trkpt>
      <trkpt lat="43.98668" lon="3.93788">
        <ele>209</ele>
        <time>2014-02-02T13:29:26Z</time>
      </trkpt>
      <trkpt lat="43.98677" lon="3.9384">
        <ele>209</ele>
        <time>2014-02-02T13:29:57Z</time>
      </trkpt>
      <trkpt lat="43.9869" lon="3.93902">
        <ele>209</ele>
        <time>2014-02-02T13:30:33Z</time>
      </trkpt>
      <trkpt lat="43.98691" lon="3.93912">
        <ele>209</ele>
        <time>2014-02-02T13:30:40Z</time>
      </trkpt>
      <trkpt lat="43.9869" lon="3.93917">
        <ele>209</ele>
        <time>2014-02-02T13:30:43Z</time>
      </trkpt>
      <trkpt lat="43.98688" lon="3.9392">
        <ele>209</ele>
        <time>2014-02-02T13:30:46Z</time>
      </trkpt>
      <trkpt lat="43.98684" lon="3.93921">
        <ele>208</ele>
        <time>2014-02-02T13:30:49Z</time>
      </trkpt>
      <trkpt lat="43.98677" lon="3.93921">
        <ele>208</ele>
        <time>2014-02-02T13:30:54Z</time>
      </trkpt>
      <trkpt lat="43.98673" lon="3.93918">
        <ele>208</ele>
        <time>2014-02-02T13:30:57Z</time>
      </trkpt>
      <trkpt lat="43.98666" lon="3.939">
        <ele>208</ele>
        <time>2014-02-02T13:31:11Z</time>
      </trkpt>
      <trkpt lat="43.98653" lon="3.93873">
        <ele>207</ele>
        <time>2014-02-02T13:31:32Z</time>
      </trkpt>
      <trkpt lat="43.98643" lon="3.93855">
        <ele>207</ele>
        <time>2014-02-02T13:31:45Z</time>
      </trkpt>
      <trkpt lat="43.9863" lon="3.93829">
        <ele>207</ele>
        <time>2014-02-02T13:32:03Z</time>
      </trkpt>
      <trkpt lat="43.98626" lon="3.93825">
        <ele>206</ele>
        <time>2014-02-02T13:32:07Z</time>
      </trkpt>
      <trkpt lat="43.98615" lon="3.93828">
        <ele>206</ele>
        <time>2014-02-02T13:32:16Z</time>
      </trkpt>
      <trkpt lat="43.98604" lon="3.93825">
        <ele>206</ele>
        <time>2014-02-02T13:32:25Z</time>
      </trkpt>
      <trkpt lat="43.98599" lon="3.93826">
        <ele>206</ele>
        <time>2014-02-02T13:32:30Z</time>
      </trkpt>
      <trkpt lat="43.9856" lon="3.9384">
        <ele>206</ele>
        <time>2014-02-02T13:33:09Z</time>
      </trkpt>
      <trkpt lat="43.98537" lon="3.9384">
        <ele>206</ele>
        <time>2014-02-02T13:33:30Z</time>
      </trkpt>
      <trkpt lat="43.98529" lon="3.93841">
        <ele>206</ele>
        <time>2014-02-02T13:33:39Z</time>
      </trkpt>
      <trkpt lat="43.98519" lon="3.93845">
        <ele>206</ele>
        <time>2014-02-02T13:33:53Z</time>
      </trkpt>
      <trkpt lat="43.98498" lon="3.93859">
        <ele>208</ele>
        <time>2014-02-02T13:34:24Z</time>
      </trkpt>
      <trkpt lat="43.98481" lon="3.9386">
        <ele>208</ele>
        <time>2014-02-02T13:34:43Z</time>
      </trkpt>
      <trkpt lat="43.98457" lon="3.93867">
        <ele>211</ele>
        <time>2014-02-02T13:35:17Z</time>
      </trkpt>
      <trkpt lat="43.98443" lon="3.93881">
        <ele>215</ele>
        <time>2014-02-02T13:35:41Z</time>
      </trkpt>
      <trkpt lat="43.98439" lon="3.93888">
        <ele>216</ele>
        <time>2014-02-02T13:35:51Z</time>
      </trkpt>
      <trkpt lat="43.98436" lon="3.93894">
        <ele>217</ele>
        <time>2014-02-02T13:35:58Z</time>
      </trkpt>
      <trkpt lat="43.98436" lon="3.93907">
        <ele>219</ele>
        <time>2014-02-02T13:36:17Z</time>
      </trkpt>
      <trkpt lat="43.98431" lon="3.93935">
        <ele>222</ele>
        <time>2014-02-02T13:36:48Z</time>
      </trkpt>
      <trkpt lat="43.98429" lon="3.94023">
        <ele>232</ele>
        <time>2014-02-02T13:38:27Z</time>
      </trkpt>
      <trkpt lat="43.98424" lon="3.94041">
        <ele>234</ele>
        <time>2014-02-02T13:38:46Z</time>
      </trkpt>
      <trkpt lat="43.98414" lon="3.9406">
        <ele>235</ele>
        <time>2014-02-02T13:39:09Z</time>
      </trkpt>
      <trkpt lat="43.98411" lon="3.94074">
        <ele>237</ele>
        <time>2014-02-02T13:39:26Z</time>
      </trkpt>
      <trkpt lat="43.9841" lon="3.94083">
        <ele>237</ele>
        <time>2014-02-02T13:39:40Z</time>
      </trkpt>
      <trkpt lat="43.984" lon="3.94116">
        <ele>240</ele>
        <time>2014-02-02T13:40:24Z</time>
      </trkpt>
      <trkpt lat="43.98399" lon="3.94131">
        <ele>241</ele>
        <time>2014-02-02T13:40:41Z</time>
      </trkpt>
      <trkpt lat="43.98392" lon="3.94164">
        <ele>247</ele>
        <time>2014-02-02T13:41:38Z</time>
      </trkpt>
      <trkpt lat="43.98394" lon="3.94172">
        <ele>248</ele>
        <time>2014-02-02T13:41:51Z</time>
      </trkpt>
      <trkpt lat="43.98398" lon="3.9418">
        <ele>248</ele>
        <time>2014-02-02T13:42:07Z</time>
      </trkpt>
      <trkpt lat="43.98408" lon="3.94196">
        <ele>251</ele>
        <time>2014-02-02T13:42:40Z</time>
      </trkpt>
      <trkpt lat="43.98414" lon="3.942">
        <ele>254</ele>
        <time>2014-02-02T13:43:01Z</time>
      </trkpt>
      <trkpt lat="43.98423" lon="3.94225">
        <ele>257</ele>
        <time>2014-02-02T13:43:33Z</time>
      </trkpt>
      <trkpt lat="43.98426" lon="3.94231">
        <ele>273</ele>
        <time>2014-02-02T13:48:16Z</time>
      </trkpt>
      <trkpt lat="43.98421" lon="3.94229">
        <ele>273</ele>
        <time>2014-02-02T13:48:22Z</time>
      </trkpt>
      <trkpt lat="43.9841" lon="3.94216">
        <ele>273</ele>
        <time>2014-02-02T13:48:41Z</time>
      </trkpt>
      <trkpt lat="43.984" lon="3.94218">
        <ele>274</ele>
        <time>2014-02-02T13:48:53Z</time>
      </trkpt>
      <trkpt lat="43.98384" lon="3.94229">
        <ele>274</ele>
        <time>2014-02-02T13:49:11Z</time>
      </trkpt>
      <trkpt lat="43.98359" lon="3.94257">
        <ele>274</ele>
        <time>2014-02-02T13:49:47Z</time>
      </trkpt>
      <trkpt lat="43.98329" lon="3.94269">
        <ele>275</ele>
        <time>2014-02-02T13:50:20Z</time>
      </trkpt>
      <trkpt lat="43.98321" lon="3.94275">
        <ele>276</ele>
        <time>2014-02-02T13:50:32Z</time>
      </trkpt>
      <trkpt lat="43.98312" lon="3.94284">
        <ele>275</ele>
        <time>2014-02-02T13:50:48Z</time>
      </trkpt>
      <trkpt lat="43.98306" lon="3.94289">
        <ele>275</ele>
        <time>2014-02-02T13:51:01Z</time>
      </trkpt>
      <trkpt lat="43.98296" lon="3.94292">
        <ele>275</ele>
        <time>2014-02-02T13:51:15Z</time>
      </trkpt>
      <trkpt lat="43.98288" lon="3.943">
        <ele>274</ele>
        <time>2014-02-02T13:51:32Z</time>
      </trkpt>
      <trkpt lat="43.98277" lon="3.94318">
        <ele>273</ele>
        <time>2014-02-02T13:52:04Z</time>
      </trkpt>
      <trkpt lat="43.98258" lon="3.94373">
        <ele>266</ele>
        <time>2014-02-02T13:53:07Z</time>
      </trkpt>
      <trkpt lat="43.98251" lon="3.94404">
        <ele>262</ele>
        <time>2014-02-02T13:53:47Z</time>
      </trkpt>
      <trkpt lat="43.98251" lon="3.9441">
        <ele>261</ele>
        <time>2014-02-02T13:54:04Z</time>
      </trkpt>
      <trkpt lat="43.98254" lon="3.94416">
        <ele>260</ele>
        <time>2014-02-02T13:54:20Z</time>
      </trkpt>
      <trkpt lat="43.98254" lon="3.94427">
        <ele>259</ele>
        <time>2014-02-02T13:54:37Z</time>
      </trkpt>
      <trkpt lat="43.98246" lon="3.94448">
        <ele>255</ele>
        <time>2014-02-02T13:55:10Z</time>
      </trkpt>
      <trkpt lat="43.98241" lon="3.94472">
        <ele>251</ele>
        <time>2014-02-02T13:55:43Z</time>
      </trkpt>
      <trkpt lat="43.98231" lon="3.94491">
        <ele>246</ele>
        <time>2014-02-02T13:56:17Z</time>
      </trkpt>
      <trkpt lat="43.98229" lon="3.94502">
        <ele>244</ele>
        <time>2014-02-02T13:56:32Z</time>
      </trkpt>
      <trkpt lat="43.98225" lon="3.94513">
        <ele>242</ele>
        <time>2014-02-02T13:56:49Z</time>
      </trkpt>
      <trkpt lat="43.98224" lon="3.9452">
        <ele>241</ele>
        <time>2014-02-02T13:57:02Z</time>
      </trkpt>
      <trkpt lat="43.98215" lon="3.94532">
        <ele>237</ele>
        <time>2014-02-02T13:57:34Z</time>
      </trkpt>
      <trkpt lat="43.98214" lon="3.94543">
        <ele>234</ele>
        <time>2014-02-02T13:57:55Z</time>
      </trkpt>
      <trkpt lat="43.98211" lon="3.9455">
        <ele>232</ele>
        <time>2014-02-02T13:58:07Z</time>
      </trkpt>
      <trkpt lat="43.98201" lon="3.94558">
        <ele>230</ele>
        <time>2014-02-02T13:58:29Z</time>
      </trkpt>
      <trkpt lat="43.98196" lon="3.9456">
        <ele>229</ele>
        <time>2014-02-02T13:58:34Z</time>
      </trkpt>
      <trkpt lat="43.98192" lon="3.94561">
        <ele>229</ele>
        <time>2014-02-02T13:58:37Z</time>
      </trkpt>
      <trkpt lat="43.98185" lon="3.94559">
        <ele>228</ele>
        <time>2014-02-02T13:58:45Z</time>
      </trkpt>
      <trkpt lat="43.9818" lon="3.94562">
        <ele>227</ele>
        <time>2014-02-02T13:58:52Z</time>
      </trkpt>
      <trkpt lat="43.98173" lon="3.94562">
        <ele>226</ele>
        <time>2014-02-02T13:59:04Z</time>
      </trkpt>
      <trkpt lat="43.98171" lon="3.94566">
        <ele>225</ele>
        <time>2014-02-02T13:59:10Z</time>
      </trkpt>
      <trkpt lat="43.98171" lon="3.94573">
        <ele>225</ele>
        <time>2014-02-02T13:59:22Z</time>
      </trkpt>
      <trkpt lat="43.98168" lon="3.94576">
        <ele>224</ele>
        <time>2014-02-02T13:59:31Z</time>
      </trkpt>
      <trkpt lat="43.98154" lon="3.94572">
        <ele>220</ele>
        <time>2014-02-02T14:00:02Z</time>
      </trkpt>
      <trkpt lat="43.98153" lon="3.94565">
        <ele>219</ele>
        <time>2014-02-02T14:00:15Z</time>
      </trkpt>
      <trkpt lat="43.98146" lon="3.9456">
        <ele>219</ele>
        <time>2014-02-02T14:00:31Z</time>
      </trkpt>
      <trkpt lat="43.9814" lon="3.94561">
        <ele>219</ele>
        <time>2014-02-02T14:01:11Z</time>
      </trkpt>
      <trkpt lat="43.98138" lon="3.94563">
        <ele>212</ele>
        <time>2014-02-02T14:02:23Z</time>
      </trkpt>
      <trkpt lat="43.98134" lon="3.94561">
        <ele>212</ele>
        <time>2014-02-02T14:02:32Z</time>
      </trkpt>
      <trkpt lat="43.9813" lon="3.9456">
        <ele>211</ele>
        <time>2014-02-02T14:02:43Z</time>
      </trkpt>
      <trkpt lat="43.98128" lon="3.94561">
        <ele>212</ele>
        <time>2014-02-02T14:02:55Z</time>
      </trkpt>
      <trkpt lat="43.98123" lon="3.94574">
        <ele>211</ele>
        <time>2014-02-02T14:03:29Z</time>
      </trkpt>
      <trkpt lat="43.98131" lon="3.94583">
        <ele>211</ele>
        <time>2014-02-02T14:03:51Z</time>
      </trkpt>
      <trkpt lat="43.98133" lon="3.94589">
        <ele>210</ele>
        <time>2014-02-02T14:04:04Z</time>
      </trkpt>
      <trkpt lat="43.98141" lon="3.94595">
        <ele>205</ele>
        <time>2014-02-02T14:04:50Z</time>
      </trkpt>
      <trkpt lat="43.98142" lon="3.94604">
        <ele>199</ele>
        <time>2014-02-02T14:07:26Z</time>
      </trkpt>
      <trkpt lat="43.98144" lon="3.94601">
        <ele>195</ele>
        <time>2014-02-02T14:08:13Z</time>
      </trkpt>
      <trkpt lat="43.98143" lon="3.94603">
        <ele>199</ele>
        <time>2014-02-02T14:09:33Z</time>
      </trkpt>
      <trkpt lat="43.98146" lon="3.94609">
        <ele>200</ele>
        <time>2014-02-02T14:09:45Z</time>
      </trkpt>
      <trkpt lat="43.98145" lon="3.94625">
        <ele>199</ele>
        <time>2014-02-02T14:10:15Z</time>
      </trkpt>
      <trkpt lat="43.98142" lon="3.94633">
        <ele>199</ele>
        <time>2014-02-02T14:10:22Z</time>
      </trkpt>
      <trkpt lat="43.98127" lon="3.94657">
        <ele>199</ele>
        <time>2014-02-02T14:10:54Z</time>
      </trkpt>
      <trkpt lat="43.98113" lon="3.94667">
        <ele>197</ele>
        <time>2014-02-02T14:11:12Z</time>
      </trkpt>
      <trkpt lat="43.98105" lon="3.94675">
        <ele>197</ele>
        <time>2014-02-02T14:11:21Z</time>
      </trkpt>
      <trkpt lat="43.981" lon="3.94673">
        <ele>197</ele>
        <time>2014-02-02T14:11:27Z</time>
      </trkpt>
      <trkpt lat="43.98093" lon="3.94665">
        <ele>197</ele>
        <time>2014-02-02T14:11:38Z</time>
      </trkpt>
      <trkpt lat="43.9809" lon="3.94665">
        <ele>197</ele>
        <time>2014-02-02T14:11:55Z</time>
      </trkpt>
      <trkpt lat="43.98084" lon="3.94668">
        <ele>196</ele>
        <time>2014-02-02T14:12:02Z</time>
      </trkpt>
      <trkpt lat="43.98079" lon="3.94667">
        <ele>196</ele>
        <time>2014-02-02T14:12:07Z</time>
      </trkpt>
      <trkpt lat="43.98063" lon="3.9465">
        <ele>196</ele>
        <time>2014-02-02T14:12:31Z</time>
      </trkpt>
      <trkpt lat="43.9806" lon="3.94644">
        <ele>195</ele>
        <time>2014-02-02T14:12:36Z</time>
      </trkpt>
      <trkpt lat="43.98061" lon="3.94638">
        <ele>195</ele>
        <time>2014-02-02T14:12:42Z</time>
      </trkpt>
      <trkpt lat="43.98073" lon="3.94615">
        <ele>196</ele>
        <time>2014-02-02T14:13:03Z</time>
      </trkpt>
      <trkpt lat="43.98073" lon="3.94608">
        <ele>195</ele>
        <time>2014-02-02T14:13:10Z</time>
      </trkpt>
      <trkpt lat="43.98052" lon="3.94586">
        <ele>195</ele>
        <time>2014-02-02T14:13:37Z</time>
      </trkpt>
      <trkpt lat="43.98042" lon="3.94573">
        <ele>196</ele>
        <time>2014-02-02T14:13:50Z</time>
      </trkpt>
      <trkpt lat="43.98023" lon="3.94552">
        <ele>195</ele>
        <time>2014-02-02T14:14:11Z</time>
      </trkpt>
      <trkpt lat="43.98009" lon="3.9454">
        <ele>193</ele>
        <time>2014-02-02T14:14:26Z</time>
      </trkpt>
      <trkpt lat="43.97987" lon="3.94528">
        <ele>194</ele>
        <time>2014-02-02T14:14:47Z</time>
      </trkpt>
      <trkpt lat="43.97974" lon="3.94518">
        <ele>194</ele>
        <time>2014-02-02T14:15:01Z</time>
      </trkpt>
      <trkpt lat="43.97929" lon="3.94487">
        <ele>192</ele>
        <time>2014-02-02T14:15:50Z</time>
      </trkpt>
      <trkpt lat="43.9792" lon="3.94478">
        <ele>191</ele>
        <time>2014-02-02T14:16:00Z</time>
      </trkpt>
      <trkpt lat="43.97896" lon="3.94461">
        <ele>189</ele>
        <time>2014-02-02T14:16:24Z</time>
      </trkpt>
      <trkpt lat="43.9788" lon="3.94441">
        <ele>187</ele>
        <time>2014-02-02T14:16:44Z</time>
      </trkpt>
      <trkpt lat="43.97855" lon="3.9442">
        <ele>185</ele>
        <time>2014-02-02T14:17:12Z</time>
      </trkpt>
      <trkpt lat="43.97853" lon="3.94412">
        <ele>184</ele>
        <time>2014-02-02T14:17:19Z</time>
      </trkpt>
      <trkpt lat="43.97858" lon="3.9438">
        <ele>183</ele>
        <time>2014-02-02T14:17:43Z</time>
      </trkpt>
      <trkpt lat="43.9785" lon="3.94365">
        <ele>183</ele>
        <time>2014-02-02T14:17:54Z</time>
      </trkpt>
      <trkpt lat="43.97841" lon="3.94355">
        <ele>182</ele>
        <time>2014-02-02T14:18:04Z</time>
      </trkpt>
      <trkpt lat="43.97825" lon="3.94341">
        <ele>181</ele>
        <time>2014-02-02T14:18:20Z</time>
      </trkpt>
      <trkpt lat="43.97809" lon="3.9433">
        <ele>180</ele>
        <time>2014-02-02T14:18:34Z</time>
      </trkpt>
      <trkpt lat="43.97789" lon="3.9432">
        <ele>179</ele>
        <time>2014-02-02T14:18:54Z</time>
      </trkpt>
      <trkpt lat="43.97758" lon="3.94299">
        <ele>176</ele>
        <time>2014-02-02T14:19:22Z</time>
      </trkpt>
      <trkpt lat="43.9772" lon="3.9428">
        <ele>176</ele>
        <time>2014-02-02T14:19:56Z</time>
      </trkpt>
      <trkpt lat="43.97706" lon="3.94277">
        <ele>176</ele>
        <time>2014-02-02T14:20:08Z</time>
      </trkpt>
      <trkpt lat="43.97683" lon="3.94269">
        <ele>174</ele>
        <time>2014-02-02T14:20:28Z</time>
      </trkpt>
      <trkpt lat="43.97652" lon="3.94263">
        <ele>174</ele>
        <time>2014-02-02T14:20:56Z</time>
      </trkpt>
      <trkpt lat="43.97638" lon="3.94259">
        <ele>173</ele>
        <time>2014-02-02T14:21:09Z</time>
      </trkpt>
      <trkpt lat="43.97605" lon="3.94255">
        <ele>172</ele>
        <time>2014-02-02T14:21:39Z</time>
      </trkpt>
      <trkpt lat="43.97587" lon="3.94245">
        <ele>171</ele>
        <time>2014-02-02T14:21:55Z</time>
      </trkpt>
      <trkpt lat="43.9757" lon="3.94231">
        <ele>169</ele>
        <time>2014-02-02T14:22:12Z</time>
      </trkpt>
      <trkpt lat="43.97518" lon="3.94212">
        <ele>168</ele>
        <time>2014-02-02T14:22:59Z</time>
      </trkpt>
      <trkpt lat="43.975" lon="3.94209">
        <ele>168</ele>
        <time>2014-02-02T14:23:15Z</time>
      </trkpt>
      <trkpt lat="43.97476" lon="3.94203">
        <ele>166</ele>
        <time>2014-02-02T14:23:36Z</time>
      </trkpt>
      <trkpt lat="43.97456" lon="3.94203">
        <ele>167</ele>
        <time>2014-02-02T14:23:50Z</time>
      </trkpt>
      <trkpt lat="43.97445" lon="3.942">
        <ele>166</ele>
        <time>2014-02-02T14:24:00Z</time>
      </trkpt>
      <trkpt lat="43.97388" lon="3.94176">
        <ele>162</ele>
        <time>2014-02-02T14:24:46Z</time>
      </trkpt>
      <trkpt lat="43.97371" lon="3.94172">
        <ele>160</ele>
        <time>2014-02-02T14:25:00Z</time>
      </trkpt>
      <trkpt lat="43.97359" lon="3.94167">
        <ele>159</ele>
        <time>2014-02-02T14:25:10Z</time>
      </trkpt>
      <trkpt lat="43.97343" lon="3.94155">
        <ele>157</ele>
        <time>2014-02-02T14:25:26Z</time>
      </trkpt>
      <trkpt lat="43.97329" lon="3.94142">
        <ele>156</ele>
        <time>2014-02-02T14:25:38Z</time>
      </trkpt>
      <trkpt lat="43.97322" lon="3.94139">
        <ele>155</ele>
        <time>2014-02-02T14:25:52Z</time>
      </trkpt>
      <trkpt lat="43.97318" lon="3.94136">
        <ele>155</ele>
        <time>2014-02-02T14:25:59Z</time>
      </trkpt>
      <trkpt lat="43.97297" lon="3.94137">
        <ele>154</ele>
        <time>2014-02-02T14:26:20Z</time>
      </trkpt>
      <trkpt lat="43.97284" lon="3.94135">
        <ele>153</ele>
        <time>2014-02-02T14:26:36Z</time>
      </trkpt>
      <trkpt lat="43.97265" lon="3.94127">
        <ele>154</ele>
        <time>2014-02-02T14:26:53Z</time>
      </trkpt>
      <trkpt lat="43.97251" lon="3.94124">
        <ele>155</ele>
        <time>2014-02-02T14:27:04Z</time>
      </trkpt>
      <trkpt lat="43.97232" lon="3.94123">
        <ele>156</ele>
        <time>2014-02-02T14:27:17Z</time>
      </trkpt>
      <trkpt lat="43.97197" lon="3.94115">
        <ele>156</ele>
        <time>2014-02-02T14:27:45Z</time>
      </trkpt>
      <trkpt lat="43.9718" lon="3.94114">
        <ele>155</ele>
        <time>2014-02-02T14:27:59Z</time>
      </trkpt>
      <trkpt lat="43.97169" lon="3.94109">
        <ele>154</ele>
        <time>2014-02-02T14:28:10Z</time>
      </trkpt>
      <trkpt lat="43.97161" lon="3.94104">
        <ele>145</ele>
        <time>2014-02-02T14:28:18Z</time>
      </trkpt>
      <trkpt lat="43.97131" lon="3.94092">
        <ele>119</ele>
        <time>2014-02-02T14:28:50Z</time>
      </trkpt>
      <trkpt lat="43.97113" lon="3.94089">
        <ele>123</ele>
        <time>2014-02-02T14:29:06Z</time>
      </trkpt>
      <trkpt lat="43.97089" lon="3.9409">
        <ele>126</ele>
        <time>2014-02-02T14:29:25Z</time>
      </trkpt>
      <trkpt lat="43.9708" lon="3.94089">
        <ele>127</ele>
        <time>2014-02-02T14:29:34Z</time>
      </trkpt>
      <trkpt lat="43.97036" lon="3.94075">
        <ele>134</ele>
        <time>2014-02-02T14:30:14Z</time>
      </trkpt>
      <trkpt lat="43.97001" lon="3.94069">
        <ele>134</ele>
        <time>2014-02-02T14:30:46Z</time>
      </trkpt>
      <trkpt lat="43.9698" lon="3.94067">
        <ele>135</ele>
        <time>2014-02-02T14:31:05Z</time>
      </trkpt>
      <trkpt lat="43.96958" lon="3.94062">
        <ele>130</ele>
        <time>2014-02-02T14:31:23Z</time>
      </trkpt>
      <trkpt lat="43.96949" lon="3.94061">
        <ele>128</ele>
        <time>2014-02-02T14:31:30Z</time>
      </trkpt>
      <trkpt lat="43.96944" lon="3.94063">
        <ele>128</ele>
        <time>2014-02-02T14:31:34Z</time>
      </trkpt>
      <trkpt lat="43.9692" lon="3.94078">
        <ele>129</ele>
        <time>2014-02-02T14:31:56Z</time>
      </trkpt>
      <trkpt lat="43.96904" lon="3.94085">
        <ele>131</ele>
        <time>2014-02-02T14:32:12Z</time>
      </trkpt>
      <trkpt lat="43.96895" lon="3.94084">
        <ele>131</ele>
        <time>2014-02-02T14:32:22Z</time>
      </trkpt>
      <trkpt lat="43.96854" lon="3.94093">
        <ele>129</ele>
        <time>2014-02-02T14:33:04Z</time>
      </trkpt>
      <trkpt lat="43.96845" lon="3.94093">
        <ele>130</ele>
        <time>2014-02-02T14:33:12Z</time>
      </trkpt>
      <trkpt lat="43.96821" lon="3.94091">
        <ele>133</ele>
        <time>2014-02-02T14:33:33Z</time>
      </trkpt>
      <trkpt lat="43.96813" lon="3.94092">
        <ele>133</ele>
        <time>2014-02-02T14:33:41Z</time>
      </trkpt>
      <trkpt lat="43.96804" lon="3.94095">
        <ele>134</ele>
        <time>2014-02-02T14:33:50Z</time>
      </trkpt>
      <trkpt lat="43.96788" lon="3.94103">
        <ele>135</ele>
        <time>2014-02-02T14:34:07Z</time>
      </trkpt>
      <trkpt lat="43.96782" lon="3.94104">
        <ele>135</ele>
        <time>2014-02-02T14:34:13Z</time>
      </trkpt>
      <trkpt lat="43.96772" lon="3.94101">
        <ele>136</ele>
        <time>2014-02-02T14:34:21Z</time>
      </trkpt>
      <trkpt lat="43.96763" lon="3.94095">
        <ele>137</ele>
        <time>2014-02-02T14:34:29Z</time>
      </trkpt>
      <trkpt lat="43.96743" lon="3.94073">
        <ele>138</ele>
        <time>2014-02-02T14:34:51Z</time>
      </trkpt>
      <trkpt lat="43.96731" lon="3.94065">
        <ele>139</ele>
        <time>2014-02-02T14:35:03Z</time>
      </trkpt>
      <trkpt lat="43.96684" lon="3.94045">
        <ele>137</ele>
        <time>2014-02-02T14:35:44Z</time>
      </trkpt>
      <trkpt lat="43.96662" lon="3.94041">
        <ele>138</ele>
        <time>2014-02-02T14:36:02Z</time>
      </trkpt>
      <trkpt lat="43.96637" lon="3.94032">
        <ele>140</ele>
        <time>2014-02-02T14:36:26Z</time>
      </trkpt>
      <trkpt lat="43.96632" lon="3.94034">
        <ele>140</ele>
        <time>2014-02-02T14:36:31Z</time>
      </trkpt>
      <trkpt lat="43.9663" lon="3.94037">
        <ele>140</ele>
        <time>2014-02-02T14:36:34Z</time>
      </trkpt>
      <trkpt lat="43.96615" lon="3.94063">
        <ele>140</ele>
        <time>2014-02-02T14:36:56Z</time>
      </trkpt>
      <trkpt lat="43.96611" lon="3.94072">
        <ele>140</ele>
        <time>2014-02-02T14:37:03Z</time>
      </trkpt>
      <trkpt lat="43.96611" lon="3.94079">
        <ele>137</ele>
        <time>2014-02-02T14:37:08Z</time>
      </trkpt>
      <trkpt lat="43.96622" lon="3.94111">
        <ele>133</ele>
        <time>2014-02-02T14:37:33Z</time>
      </trkpt>
      <trkpt lat="43.96623" lon="3.9412">
        <ele>133</ele>
        <time>2014-02-02T14:37:41Z</time>
      </trkpt>
      <trkpt lat="43.96621" lon="3.94123">
        <ele>133</ele>
        <time>2014-02-02T14:37:50Z</time>
      </trkpt>
    </trkseg>
  </trk>
</gpx>